Observation data for Big Lake on 02/22/2019      Previous  Date  Next       Current Mesonet Observations  Soil Data  Daily Summary Page  Observations in Plain Language
KBI1 220600Z 14007KT 06/03 A2987 RMK A01 T00550026  RH  081%=      5-min Rain = 0
KBI1 220601Z 13009KT 06/03 A2987 RMK A01 T00550026  RH  082%=      5-min Rain = 0
KBI1 220602Z 14008KT 05/03 A2987 RMK A01 T00540026  RH  082%=      5-min Rain = 0
KBI1 220603Z 13007KT 05/03 A2987 RMK A01 T00540026  RH  082%=      5-min Rain = 0
KBI1 220604Z 13007KT 05/03 A2987 RMK A01 T00540026  RH  082%=      5-min Rain = 0
KBI1 220605Z 13007KT 05/03 A2987 RMK A01 T00530026  RH  082%=      5-min Rain = 0
KBI1 220606Z 13008KT 05/03 A2987 RMK A01 T00530026  RH  082%=      5-min Rain = 0
KBI1 220607Z 13008KT 05/03 A2987 RMK A01 T00530026  RH  083%=      5-min Rain = 0
KBI1 220608Z 13008KT 05/03 A2987 RMK A01 T00530026  RH  083%=      5-min Rain = 0
KBI1 220609Z 14007KT 05/03 A2987 RMK A01 T00530026  RH  083%=      5-min Rain = 0
KBI1 220610Z 14008KT 05/03 A2987 RMK A01 T00530026  RH  083%=      5-min Rain = 0
KBI1 220611Z 13008KT 05/03 A2987 RMK A01 T00530027  RH  083%=      5-min Rain = 0
KBI1 220612Z 14008KT 05/03 A2987 RMK A01 T00530027  RH  083%=      5-min Rain = 0
KBI1 220613Z 14007KT 05/03 A2987 RMK A01 T00530027  RH  083%=      5-min Rain = 0
KBI1 220614Z 14007KT 05/03 A2987 RMK A01 T00530027  RH  083%=      5-min Rain = 0
KBI1 220615Z 14007KT 05/03 A2987 RMK A01 T00530027  RH  083%=      5-min Rain = 0
KBI1 220616Z 14006KT 05/03 A2987 RMK A01 T00530027  RH  083%=      5-min Rain = 0
KBI1 220617Z 14007KT 05/03 A2987 RMK A01 T00530027  RH  083%=      5-min Rain = 0
KBI1 220618Z 14006KT 05/03 A2987 RMK A01 T00530028  RH  084%=      5-min Rain = 0
KBI1 220619Z 14005KT 05/03 A2987 RMK A01 T00530027  RH  084%=      5-min Rain = 0
KBI1 220620Z 14006KT 05/03 A2987 RMK A01 T00530027  RH  084%=      5-min Rain = 0
KBI1 220621Z 14005KT 05/03 A2987 RMK A01 T00530028  RH  084%=      5-min Rain = 0
KBI1 220622Z 15005KT 05/03 A2987 RMK A01 T00530028  RH  084%=      5-min Rain = 0
KBI1 220623Z 14004KT 05/03 A2987 RMK A01 T00520027  RH  084%=      5-min Rain = 0
KBI1 220624Z 15005KT 05/03 A2987 RMK A01 T00520027  RH  084%=      5-min Rain = 0
KBI1 220625Z 14005KT 05/03 A2987 RMK A01 T00520028  RH  084%=      5-min Rain = 0
KBI1 220626Z 14007KT 05/03 A2987 RMK A01 T00520028  RH  085%=      5-min Rain = 0
KBI1 220627Z 14007KT 05/03 A2987 RMK A01 T00530029  RH  085%=      5-min Rain = 0
KBI1 220628Z 14007KT 05/03 A2987 RMK A01 T00530030  RH  085%=      5-min Rain = 0
KBI1 220629Z 13009KT 05/03 A2987 RMK A01 T00540031  RH  085%=      5-min Rain = 0
KBI1 220630Z 14007KT 06/03 A2987 RMK A01 T00560032  RH  085%=      5-min Rain = 0
KBI1 220631Z 14006KT 06/03 A2987 RMK A01 T00560032  RH  084%=      5-min Rain = 0
KBI1 220632Z 14005KT 06/03 A2987 RMK A01 T00560031  RH  084%=      5-min Rain = 0
KBI1 220633Z 14006KT 06/03 A2987 RMK A01 T00560032  RH  084%=      5-min Rain = 0
KBI1 220634Z 15006KT 06/03 A2987 RMK A01 T00560032  RH  084%=      5-min Rain = 0
KBI1 220635Z 14006KT 06/03 A2987 RMK A01 T00560032  RH  084%=      5-min Rain = 0
KBI1 220636Z 13006KT 06/03 A2986 RMK A01 T00560032  RH  084%=      5-min Rain = 0
KBI1 220637Z 14007KT 06/03 A2986 RMK A01 T00560032  RH  084%=      5-min Rain = 0
KBI1 220638Z 14006KT 06/03 A2986 RMK A01 T00560032  RH  085%=      5-min Rain = 0
KBI1 220639Z 14005KT 06/03 A2986 RMK A01 T00560032  RH  085%=      5-min Rain = 0
KBI1 220640Z 13006KT 06/03 A2986 RMK A01 T00560032  RH  085%=      5-min Rain = 0
KBI1 220641Z 14004KT 06/03 A2986 RMK A01 T00560032  RH  085%=      5-min Rain = 0
KBI1 220642Z 14006KT 06/03 A2986 RMK A01 T00550032  RH  085%=      5-min Rain = 0
KBI1 220643Z 14006KT 06/03 A2986 RMK A01 T00550032  RH  085%=      5-min Rain = 0
KBI1 220644Z 13007KT 06/03 A2986 RMK A01 T00550033  RH  085%=      5-min Rain = 0
KBI1 220645Z 13007KT 06/03 A2986 RMK A01 T00550033  RH  085%=      5-min Rain = 0
KBI1 220646Z 13006KT 06/03 A2986 RMK A01 T00550033  RH  085%=      5-min Rain = 0
KBI1 220647Z 13006KT 06/03 A2986 RMK A01 T00550032  RH  085%=      5-min Rain = 0
KBI1 220648Z 13008KT 06/03 A2986 RMK A01 T00550033  RH  086%=      5-min Rain = 0
KBI1 220649Z 14008KT 06/03 A2986 RMK A01 T00560034  RH  086%=      5-min Rain = 0
KBI1 220650Z 14008KT 06/04 A2986 RMK A01 T00570035  RH  086%=      5-min Rain = 0
KBI1 220651Z 14008KT 06/04 A2986 RMK A01 T00580036  RH  086%=      5-min Rain = 0
KBI1 220652Z 13008KT 06/04 A2986 RMK A01 T00590037  RH  085%=      5-min Rain = 0
KBI1 220653Z 13008KT 06/04 A2986 RMK A01 T00600036  RH  085%=      5-min Rain = 0
KBI1 220654Z 13007KT 06/04 A2986 RMK A01 T00600037  RH  085%=      5-min Rain = 0
KBI1 220655Z 14007KT 06/04 A2986 RMK A01 T00600037  RH  085%=      5-min Rain = 0
KBI1 220656Z 14007KT 06/04 A2986 RMK A01 T00610038  RH  085%=      5-min Rain = 0
KBI1 220657Z 14006KT 06/04 A2986 RMK A01 T00620038  RH  085%=      5-min Rain = 0
KBI1 220658Z 14006KT 06/04 A2986 RMK A01 T00620038  RH  084%=      5-min Rain = 0
KBI1 220659Z 14007KT 06/04 A2985 RMK A01 T00620038  RH  084%=      5-min Rain = 0
KBI1 220700Z 14007KT 06/04 A2985 RMK A01 T00630039  RH  085%=      5-min Rain = 0
KBI1 220701Z 14007KT 06/04 A2985 RMK A01 T00640039  RH  084%=      5-min Rain = 0
KBI1 220702Z 13008KT 06/04 A2985 RMK A01 T00640040  RH  084%=      5-min Rain = 0
KBI1 220703Z 13007KT 07/04 A2985 RMK A01 T00650041  RH  084%=      5-min Rain = 0
KBI1 220704Z 13007KT 07/04 A2985 RMK A01 T00660041  RH  084%=      5-min Rain = 0
KBI1 220705Z 13006KT 07/04 A2985 RMK A01 T00660041  RH  084%=      5-min Rain = 0
KBI1 220706Z 13006KT 07/04 A2985 RMK A01 T00670041  RH  084%=      5-min Rain = 0
KBI1 220707Z 12006KT 07/04 A2985 RMK A01 T00670041  RH  084%=      5-min Rain = 0
KBI1 220708Z 12006KT 07/04 A2985 RMK A01 T00660041  RH  084%=      5-min Rain = 0
KBI1 220709Z 13008KT 07/04 A2985 RMK A01 T00660040  RH  083%=      5-min Rain = 0
KBI1 220710Z 13008KT 07/04 A2985 RMK A01 T00650040  RH  084%=      5-min Rain = 0
KBI1 220711Z 12008KT 07/04 A2985 RMK A01 T00650041  RH  084%=      5-min Rain = 0
KBI1 220712Z 12008KT 07/04 A2985 RMK A01 T00650040  RH  084%=      5-min Rain = 0
KBI1 220713Z 12007KT 07/04 A2985 RMK A01 T00650040  RH  084%=      5-min Rain = 0
KBI1 220714Z 13008KT 07/04 A2985 RMK A01 T00650040  RH  084%=      5-min Rain = 0
KBI1 220715Z 12009KT 07/04 A2985 RMK A01 T00650041  RH  085%=      5-min Rain = 0
KBI1 220716Z 12008KT 07/04 A2984 RMK A01 T00650041  RH  085%=      5-min Rain = 0
KBI1 220717Z 13008KT 07/04 A2985 RMK A01 T00650041  RH  085%=      5-min Rain = 0
KBI1 220718Z 13007KT 07/04 A2984 RMK A01 T00650041  RH  085%=      5-min Rain = 0
KBI1 220719Z 13008KT 07/04 A2984 RMK A01 T00650041  RH  085%=      5-min Rain = 0
KBI1 220720Z 12009KT 07/04 A2984 RMK A01 T00650041  RH  085%=      5-min Rain = 0
KBI1 220721Z 12009KT 07/04 A2984 RMK A01 T00650042  RH  085%=      5-min Rain = 0
KBI1 220722Z 13009KT 07/04 A2984 RMK A01 T00650042  RH  085%=      5-min Rain = 0
KBI1 220723Z 12009KT 07/04 A2985 RMK A01 T00650042  RH  085%=      5-min Rain = 0
KBI1 220724Z 13009KT 07/04 A2985 RMK A01 T00650042  RH  085%=      5-min Rain = 0
KBI1 220725Z 13008KT 07/04 A2985 RMK A01 T00650042  RH  085%=      5-min Rain = 0
KBI1 220726Z 12008KT 07/04 A2985 RMK A01 T00650042  RH  086%=      5-min Rain = 0
KBI1 220727Z 12008KT 07/04 A2985 RMK A01 T00650043  RH  086%=      5-min Rain = 0
KBI1 220728Z 13009KT 07/04 A2985 RMK A01 T00660043  RH  085%=      5-min Rain = 0
KBI1 220729Z 13008KT 07/04 A2985 RMK A01 T00650043  RH  085%=      5-min Rain = 0
KBI1 220730Z 13007KT 07/04 A2985 RMK A01 T00650043  RH  086%=      5-min Rain = 0
KBI1 220731Z 13008KT 07/04 A2985 RMK A01 T00650043  RH  086%=      5-min Rain = 0
KBI1 220732Z 14007KT 07/04 A2985 RMK A01 T00650043  RH  086%=      5-min Rain = 0
KBI1 220733Z 13007KT 07/04 A2985 RMK A01 T00650043  RH  086%=      5-min Rain = 0
KBI1 220734Z 13007KT 07/04 A2985 RMK A01 T00650043  RH  086%=      5-min Rain = 0
KBI1 220735Z 13008KT 07/04 A2985 RMK A01 T00650043  RH  086%=      5-min Rain = 0
KBI1 220736Z 13007KT 07/04 A2985 RMK A01 T00660043  RH  086%=      5-min Rain = 0
KBI1 220737Z 13006KT 07/04 A2985 RMK A01 T00650043  RH  086%=      5-min Rain = 0
KBI1 220738Z 13007KT 07/04 A2985 RMK A01 T00650043  RH  086%=      5-min Rain = 0
KBI1 220739Z 13007KT 06/04 A2985 RMK A01 T00640043  RH  086%=      5-min Rain = 0
KBI1 220740Z 14006KT 07/04 A2985 RMK A01 T00650043  RH  086%=      5-min Rain = 0
KBI1 220741Z 14006KT 07/04 A2985 RMK A01 T00650043  RH  086%=      5-min Rain = 0
KBI1 220742Z 14007KT 06/04 A2985 RMK A01 T00640043  RH  086%=      5-min Rain = 0
KBI1 220743Z 14007KT 07/04 A2985 RMK A01 T00650043  RH  086%=      5-min Rain = 0
KBI1 220744Z 14005KT 06/04 A2985 RMK A01 T00640043  RH  086%=      5-min Rain = 0
KBI1 220745Z 14008KT 07/04 A2985 RMK A01 T00650043  RH  086%=      5-min Rain = 0
KBI1 220746Z 14006KT 07/04 A2985 RMK A01 T00650043  RH  086%=      5-min Rain = 0
KBI1 220747Z 14007KT 06/04 A2985 RMK A01 T00640043  RH  086%=      5-min Rain = 0
KBI1 220748Z 14007KT 06/04 A2985 RMK A01 T00640043  RH  086%=      5-min Rain = 0
KBI1 220749Z 14008KT 06/04 A2985 RMK A01 T00640043  RH  086%=      5-min Rain = 0
KBI1 220750Z 14006KT 07/04 A2985 RMK A01 T00650043  RH  086%=      5-min Rain = 0
KBI1 220751Z 14007KT 07/04 A2985 RMK A01 T00650044  RH  086%=      5-min Rain = 0
KBI1 220752Z 14008KT 06/04 A2985 RMK A01 T00640043  RH  086%=      5-min Rain = 0
KBI1 220753Z 14005KT 07/04 A2985 RMK A01 T00650043  RH  086%=      5-min Rain = 0
KBI1 220754Z 14006KT 06/04 A2985 RMK A01 T00640043  RH  086%=      5-min Rain = 0
KBI1 220755Z 14006KT 06/04 A2985 RMK A01 T00640043  RH  087%=      5-min Rain = 0
KBI1 220756Z 14005KT 06/04 A2985 RMK A01 T00630043  RH  087%=      5-min Rain = 0
KBI1 220757Z 14006KT 06/04 A2985 RMK A01 T00640043  RH  087%=      5-min Rain = 0
KBI1 220758Z 14008KT 06/04 A2985 RMK A01 T00630043  RH  087%=      5-min Rain = 0
KBI1 220759Z 14008KT 06/04 A2985 RMK A01 T00630043  RH  087%=      5-min Rain = 0
KBI1 220800Z 14008KT 06/04 A2985 RMK A01 T00640043  RH  087%=      5-min Rain = 0
KBI1 220801Z 14007KT 06/04 A2985 RMK A01 T00630043  RH  087%=      5-min Rain = 0
KBI1 220802Z 14007KT 06/04 A2985 RMK A01 T00640043  RH  087%=      5-min Rain = 0
KBI1 220803Z 14006KT 06/04 A2985 RMK A01 T00640043  RH  087%=      5-min Rain = 0
KBI1 220804Z 14007KT 06/04 A2985 RMK A01 T00640043  RH  087%=      5-min Rain = 0
KBI1 220805Z 14006KT 06/04 A2985 RMK A01 T00630043  RH  087%=      5-min Rain = 0
KBI1 220806Z 14007KT 06/04 A2985 RMK A01 T00640043  RH  087%=      5-min Rain = 0
KBI1 220807Z 14007KT 06/04 A2985 RMK A01 T00640044  RH  087%=      5-min Rain = 0
KBI1 220808Z 14008KT 06/04 A2985 RMK A01 T00630043  RH  087%=      5-min Rain = 0
KBI1 220809Z 15007KT 06/04 A2985 RMK A01 T00630044  RH  087%=      5-min Rain = 0
KBI1 220810Z 14007KT 06/04 A2985 RMK A01 T00640044  RH  087%=      5-min Rain = 0
KBI1 220811Z 14008KT 06/04 A2985 RMK A01 T00630043  RH  087%=      5-min Rain = 0
KBI1 220812Z 14007KT 06/04 A2985 RMK A01 T00640043  RH  087%=      5-min Rain = 0
KBI1 220813Z 14008KT 06/04 A2985 RMK A01 T00640044  RH  087%=      5-min Rain = 0
KBI1 220814Z 14008KT 06/04 A2985 RMK A01 T00640044  RH  087%=      5-min Rain = 0
KBI1 220815Z 14008KT 06/04 A2985 RMK A01 T00630044  RH  087%=      5-min Rain = 0
KBI1 220816Z 14009KT 06/04 A2985 RMK A01 T00640044  RH  087%=      5-min Rain = 0
KBI1 220817Z 15007KT 06/04 A2985 RMK A01 T00640044  RH  087%=      5-min Rain = 0
KBI1 220818Z 14009KT 06/04 A2985 RMK A01 T00640044  RH  087%=      5-min Rain = 0
KBI1 220819Z 15008KT 06/04 A2985 RMK A01 T00640044  RH  087%=      5-min Rain = 0
KBI1 220820Z 15008G13KT 06/04 A2985 RMK A01 T00640044  RH  087%=      5-min Rain = 0
KBI1 220821Z 15008KT 06/04 A2985 RMK A01 T00640044  RH  087%=      5-min Rain = 0
KBI1 220822Z 14007KT 06/04 A2985 RMK A01 T00640044  RH  087%=      5-min Rain = 0
KBI1 220823Z 14007KT 06/04 A2985 RMK A01 T00640044  RH  087%=      5-min Rain = 0
KBI1 220824Z 14007KT 06/04 A2985 RMK A01 T00630043  RH  087%=      5-min Rain = 0
KBI1 220825Z 14009KT 06/04 A2985 RMK A01 T00630043  RH  087%=      5-min Rain = 0
KBI1 220826Z 15008KT 06/04 A2985 RMK A01 T00630044  RH  087%=      5-min Rain = 0
KBI1 220827Z 15007KT 06/04 A2985 RMK A01 T00630043  RH  087%=      5-min Rain = 0
KBI1 220828Z 15007KT 06/04 A2985 RMK A01 T00620043  RH  087%=      5-min Rain = 0
KBI1 220829Z 14009KT 06/04 A2985 RMK A01 T00620042  RH  087%=      5-min Rain = 0
KBI1 220830Z 15008KT 06/04 A2985 RMK A01 T00620043  RH  087%=      5-min Rain = 0
KBI1 220831Z 14008KT 06/04 A2985 RMK A01 T00620042  RH  087%=      5-min Rain = 0
KBI1 220832Z 14007KT 06/04 A2985 RMK A01 T00610042  RH  087%=      5-min Rain = 0
KBI1 220833Z 14006KT 06/04 A2985 RMK A01 T00610041  RH  087%=      5-min Rain = 0
KBI1 220834Z 14007KT 06/04 A2985 RMK A01 T00600041  RH  088%=      5-min Rain = 0
KBI1 220835Z 15009KT 06/04 A2985 RMK A01 T00600041  RH  088%=      5-min Rain = 0
KBI1 220836Z 14007KT 06/04 A2985 RMK A01 T00600042  RH  088%=      5-min Rain = 0
KBI1 220837Z 15007KT 06/04 A2985 RMK A01 T00600041  RH  088%=      5-min Rain = 0
KBI1 220838Z 14007G12KT 06/04 A2985 RMK A01 T00590041  RH  088%=      5-min Rain = 0
KBI1 220839Z 15008KT 06/04 A2985 RMK A01 T00590041  RH  088%=      5-min Rain = 0
KBI1 220840Z 15007KT 06/04 A2985 RMK A01 T00590041  RH  088%=      5-min Rain = 0
KBI1 220841Z 15008KT 06/04 A2985 RMK A01 T00590041  RH  088%=      5-min Rain = 0
KBI1 220842Z 15009KT 06/04 A2985 RMK A01 T00590041  RH  088%=      5-min Rain = 0
KBI1 220843Z 15008KT 06/04 A2985 RMK A01 T00590041  RH  088%=      5-min Rain = 0
KBI1 220844Z 15008KT 06/04 A2985 RMK A01 T00590041  RH  088%=      5-min Rain = 0
KBI1 220845Z 15008KT 06/04 A2985 RMK A01 T00590041  RH  088%=      5-min Rain = 0
KBI1 220846Z 15008KT 06/04 A2985 RMK A01 T00590041  RH  088%=      5-min Rain = 0
KBI1 220847Z 15009KT 06/04 A2985 RMK A01 T00590041  RH  088%=      5-min Rain = 0
KBI1 220848Z 15007KT 06/04 A2985 RMK A01 T00590041  RH  088%=      5-min Rain = 0
KBI1 220849Z 15008KT 06/04 A2985 RMK A01 T00590041  RH  089%=      5-min Rain = 0
KBI1 220850Z 15009KT 06/04 A2985 RMK A01 T00590041  RH  089%=      5-min Rain = 0
KBI1 220851Z 15006KT 06/04 A2985 RMK A01 T00590041  RH  089%=      5-min Rain = 0
KBI1 220852Z 15009KT 06/04 A2985 RMK A01 T00580041  RH  089%=      5-min Rain = 0
KBI1 220853Z 15008KT 06/04 A2985 RMK A01 T00580041  RH  089%=      5-min Rain = 0
KBI1 220854Z 15008KT 06/04 A2985 RMK A01 T00580041  RH  089%=      5-min Rain = 0
KBI1 220855Z 15008KT 06/04 A2985 RMK A01 T00580041  RH  089%=      5-min Rain = 0
KBI1 220856Z 15008KT 06/04 A2985 RMK A01 T00570041  RH  089%=      5-min Rain = 0
KBI1 220857Z 15009KT 06/04 A2985 RMK A01 T00570040  RH  089%=      5-min Rain = 0
KBI1 220858Z 15010KT 06/04 A2985 RMK A01 T00570041  RH  089%=      5-min Rain = 0
KBI1 220859Z 15010KT 06/04 A2985 RMK A01 T00570041  RH  089%=      5-min Rain = 0
KBI1 220900Z 15008KT 06/04 A2985 RMK A01 T00570041  RH  089%=      5-min Rain = 0
KBI1 220901Z 15010KT 06/04 A2985 RMK A01 T00570041  RH  090%=      5-min Rain = 0
KBI1 220902Z 16008KT 06/04 A2985 RMK A01 T00570042  RH  090%=      5-min Rain = 0
KBI1 220903Z 16010KT 06/04 A2985 RMK A01 T00580042  RH  090%=      5-min Rain = 0
KBI1 220904Z 15010KT 06/04 A2985 RMK A01 T00580043  RH  090%=      5-min Rain = 0
KBI1 220905Z 16010KT 06/04 A2985 RMK A01 T00590043  RH  089%=      5-min Rain = 0
KBI1 220906Z 16010KT 06/04 A2985 RMK A01 T00590043  RH  089%=      5-min Rain = 0
KBI1 220907Z 15010KT 06/04 A2985 RMK A01 T00600043  RH  089%=      5-min Rain = 0
KBI1 220908Z 15008KT 06/04 A2985 RMK A01 T00600044  RH  089%=      5-min Rain = 0
KBI1 220909Z 16009KT 06/04 A2985 RMK A01 T00600044  RH  089%=      5-min Rain = 0
KBI1 220910Z 16010KT 06/04 A2985 RMK A01 T00600044  RH  089%=      5-min Rain = 0
KBI1 220911Z 16010KT 06/04 A2985 RMK A01 T00610044  RH  089%=      5-min Rain = 0
KBI1 220912Z 16010KT 06/05 A2985 RMK A01 T00610045  RH  089%=      5-min Rain = 0
KBI1 220913Z 16010KT 06/05 A2985 RMK A01 T00620045  RH  089%=      5-min Rain = 0
KBI1 220914Z 16010KT 06/05 A2985 RMK A01 T00620045  RH  089%=      5-min Rain = 0
KBI1 220915Z 16010KT 06/05 A2985 RMK A01 T00620046  RH  089%=      5-min Rain = 0
KBI1 220916Z 16010KT 06/05 A2985 RMK A01 T00620046  RH  089%=      5-min Rain = 0
KBI1 220917Z 16010KT 06/05 A2985 RMK A01 T00620046  RH  089%=      5-min Rain = 0
KBI1 220918Z 16009KT 06/05 A2985 RMK A01 T00630046  RH  089%=      5-min Rain = 0
KBI1 220919Z 16008G14KT 06/05 A2985 RMK A01 T00630047  RH  089%=      5-min Rain = 0
KBI1 220920Z 16010KT 06/05 A2985 RMK A01 T00640047  RH  089%=      5-min Rain = 0
KBI1 220921Z 16011KT 06/05 A2985 RMK A01 T00640048  RH  089%=      5-min Rain = 0
KBI1 220922Z 15009KT 07/05 A2985 RMK A01 T00650048  RH  089%=      5-min Rain = 0
KBI1 220923Z 16012KT 07/05 A2985 RMK A01 T00650048  RH  089%=      5-min Rain = 0
KBI1 220924Z 16011KT 07/05 A2985 RMK A01 T00660049  RH  089%=      5-min Rain = 0
KBI1 220925Z 16010KT 07/05 A2985 RMK A01 T00660049  RH  089%=      5-min Rain = 0
KBI1 220926Z 16010KT 07/05 A2985 RMK A01 T00660049  RH  089%=      5-min Rain = 0
KBI1 220927Z 15009KT 07/05 A2985 RMK A01 T00660049  RH  089%=      5-min Rain = 0
KBI1 220928Z 16011KT 07/05 A2985 RMK A01 T00670050  RH  089%=      5-min Rain = 0
KBI1 220929Z 16011KT 07/05 A2985 RMK A01 T00670050  RH  089%=      5-min Rain = 0
KBI1 220930Z 15011KT 07/05 A2985 RMK A01 T00680051  RH  089%=      5-min Rain = 0
KBI1 220931Z 16010KT 07/05 A2985 RMK A01 T00680051  RH  089%=      5-min Rain = 0
KBI1 220932Z 16012KT 07/05 A2985 RMK A01 T00690052  RH  089%=      5-min Rain = 0
KBI1 220933Z 15011KT 07/05 A2985 RMK A01 T00690053  RH  089%=      5-min Rain = 0
KBI1 220934Z 16009KT 07/05 A2985 RMK A01 T00690053  RH  089%=      5-min Rain = 0
KBI1 220935Z 16010KT 07/05 A2985 RMK A01 T00700053  RH  089%=      5-min Rain = 0
KBI1 220936Z 16008KT 07/05 A2985 RMK A01 T00700054  RH  089%=      5-min Rain = 0
KBI1 220937Z 17010KT 07/05 A2985 RMK A01 T00700054  RH  090%=      5-min Rain = 0
KBI1 220938Z 16010KT 07/06 A2985 RMK A01 T00710055  RH  090%=      5-min Rain = 0
KBI1 220939Z 16011KT 07/06 A2985 RMK A01 T00710056  RH  090%=      5-min Rain = 0
KBI1 220940Z 17011KT 07/06 A2985 RMK A01 T00710057  RH  091%=      5-min Rain = 0
KBI1 220941Z 16009KT 07/06 A2985 RMK A01 T00710057  RH  091%=      5-min Rain = 0
KBI1 220942Z 16013KT 07/06 A2985 RMK A01 T00720058  RH  091%=      5-min Rain = 0
KBI1 220943Z 17009KT 07/06 A2985 RMK A01 T00720058  RH  091%=      5-min Rain = 0
KBI1 220944Z 17010KT 07/06 A2985 RMK A01 T00720059  RH  091%=      5-min Rain = 0
KBI1 220945Z 17009KT 07/06 A2985 RMK A01 T00720059  RH  092%=      5-min Rain = 0
KBI1 220946Z 16010KT 07/06 A2985 RMK A01 T00720060  RH  092%=      5-min Rain = 0
KBI1 220947Z 16009KT 07/06 A2985 RMK A01 T00720060  RH  092%=      5-min Rain = 0
KBI1 220948Z 17011KT 07/06 A2985 RMK A01 T00720061  RH  093%=      5-min Rain = 0
KBI1 220949Z 16012KT 07/06 A2985 RMK A01 T00720061  RH  093%=      5-min Rain = 0
KBI1 220950Z 17010KT 07/06 A2985 RMK A01 T00720062  RH  093%=      5-min Rain = 0
KBI1 220951Z 17009KT 07/06 A2985 RMK A01 T00720062  RH  093%=      5-min Rain = 0
KBI1 220952Z 17011KT 07/06 A2985 RMK A01 T00720062  RH  094%=      5-min Rain = 0
KBI1 220953Z 17010KT 07/06 A2985 RMK A01 T00720062  RH  094%=      5-min Rain = 0
KBI1 220954Z 16010KT 07/06 A2985 RMK A01 T00720063  RH  094%=      5-min Rain = 0
KBI1 220955Z 17010KT 07/06 A2985 RMK A01 T00720063  RH  094%=      5-min Rain = 0
KBI1 220956Z 17011KT 07/06 A2985 RMK A01 T00720063  RH  094%=      5-min Rain = 0
KBI1 220957Z 17012KT 07/06 A2985 RMK A01 T00720064  RH  095%=      5-min Rain = 0
KBI1 220958Z 17011KT 07/06 A2985 RMK A01 T00720064  RH  095%=      5-min Rain = 0
KBI1 220959Z 17012KT 07/06 A2985 RMK A01 T00720064  RH  095%=      5-min Rain = 0
KBI1 221000Z 17011KT 07/06 A2985 RMK A01 T00720064  RH  095%=      5-min Rain = 0
KBI1 221001Z 17009KT 07/07 A2985 RMK A01 T00720065  RH  095%=      5-min Rain = 0
KBI1 221002Z 16009KT 07/07 A2985 RMK A01 T00720065  RH  095%=      5-min Rain = 0
KBI1 221003Z 17012KT 07/07 A2985 RMK A01 T00720065  RH  095%=      5-min Rain = 0
KBI1 221004Z 17011KT 07/07 A2985 RMK A01 T00720065  RH  096%=      5-min Rain = 0
KBI1 221005Z 16010KT 07/07 A2985 RMK A01 T00720066  RH  096%=      5-min Rain = 0
KBI1 221006Z 17009KT 07/07 A2985 RMK A01 T00720066  RH  096%=      5-min Rain = 0
KBI1 221007Z 16010KT 07/07 A2985 RMK A01 T00720066  RH  096%=      5-min Rain = 0
KBI1 221008Z 17010KT 07/07 A2985 RMK A01 T00720066  RH  096%=      5-min Rain = 0
KBI1 221009Z 16010KT 07/07 A2985 RMK A01 T00720066  RH  096%=      5-min Rain = 0
KBI1 221010Z 16010KT 07/07 A2985 RMK A01 T00720067  RH  096%=      5-min Rain = 0
KBI1 221011Z 16012KT 07/07 A2985 RMK A01 T00720067  RH  096%=      5-min Rain = 0
KBI1 221012Z 16010KT 07/07 A2985 RMK A01 T00720067  RH  096%=      5-min Rain = 0
KBI1 221013Z 16010KT 07/07 A2985 RMK A01 T00720067  RH  097%=      5-min Rain = 0
KBI1 221014Z 16008KT 07/07 A2985 RMK A01 T00720067  RH  097%=      5-min Rain = 0
KBI1 221015Z 16010KT 07/07 A2985 RMK A01 T00720067  RH  097%=      5-min Rain = 0
KBI1 221016Z 16009KT 07/07 A2985 RMK A01 T00720067  RH  097%=      5-min Rain = 0
KBI1 221017Z 17009KT 07/07 A2985 RMK A01 T00720068  RH  097%=      5-min Rain = 0
KBI1 221018Z 16009KT 07/07 A2985 RMK A01 T00720068  RH  097%=      5-min Rain = 0
KBI1 221019Z 17011KT 07/07 A2985 RMK A01 T00720068  RH  097%=      5-min Rain = 0
KBI1 221020Z 16011KT 07/07 A2985 RMK A01 T00730068  RH  097%=      5-min Rain = 0
KBI1 221021Z 16011KT 07/07 A2985 RMK A01 T00730069  RH  097%=      5-min Rain = 0
KBI1 221022Z 16009KT 07/07 A2985 RMK A01 T00740069  RH  097%=      5-min Rain = 0
KBI1 221023Z 16009KT 07/07 A2985 RMK A01 T00740070  RH  097%=      5-min Rain = 0
KBI1 221024Z 16009KT 07/07 A2985 RMK A01 T00740070  RH  097%=      5-min Rain = 0
KBI1 221025Z 16011KT 07/07 A2985 RMK A01 T00740070  RH  097%=      5-min Rain = 0
KBI1 221026Z 16010KT 07/07 A2985 RMK A01 T00740071  RH  098%=      5-min Rain = 0
KBI1 221027Z 16009KT 08/07 A2985 RMK A01 T00750071  RH  098%=      5-min Rain = 0
KBI1 221028Z 16009KT 08/07 A2985 RMK A01 T00750072  RH  098%=      5-min Rain = 0
KBI1 221029Z 16010KT 08/07 A2985 RMK A01 T00750071  RH  098%=      5-min Rain = 0
KBI1 221030Z 16010KT 08/07 A2985 RMK A01 T00750072  RH  098%=      5-min Rain = 0
KBI1 221031Z 16007KT 08/07 A2985 RMK A01 T00750072  RH  098%=      5-min Rain = 0
KBI1 221032Z 16011KT 08/07 A2985 RMK A01 T00750072  RH  098%=      5-min Rain = 0
KBI1 221033Z 16009KT 08/07 A2985 RMK A01 T00760073  RH  098%=      5-min Rain = 0
KBI1 221034Z 16010KT 08/07 A2985 RMK A01 T00760073  RH  098%=      5-min Rain = 0
KBI1 221035Z 17008KT 08/07 A2985 RMK A01 T00760073  RH  098%=      5-min Rain = 0
KBI1 221036Z 16008KT 08/07 A2985 RMK A01 T00770074  RH  098%=      5-min Rain = 0
KBI1 221037Z 17009KT 08/07 A2985 RMK A01 T00770074  RH  098%=      5-min Rain = 0
KBI1 221038Z 17011KT 08/08 A2986 RMK A01 T00770075  RH  098%=      5-min Rain = 0
KBI1 221039Z 17010KT 08/08 A2986 RMK A01 T00780076  RH  098%=      5-min Rain = 0
KBI1 221040Z 17009KT 08/08 A2986 RMK A01 T00790076  RH  098%=      5-min Rain = 0
KBI1 221041Z 17010KT 08/08 A2986 RMK A01 T00790076  RH  098%=      5-min Rain = 0
KBI1 221042Z 17009KT 08/08 A2986 RMK A01 T00790076  RH  098%=      5-min Rain = 0
KBI1 221043Z 16011KT 08/08 A2985 RMK A01 T00790077  RH  098%=      5-min Rain = 0
KBI1 221044Z 17011KT 08/08 A2985 RMK A01 T00800077  RH  098%=      5-min Rain = 0
KBI1 221045Z 17011KT 08/08 A2985 RMK A01 T00800078  RH  098%=      5-min Rain = 0
KBI1 221046Z 17009KT 08/08 A2986 RMK A01 T00800077  RH  098%=      5-min Rain = 0
KBI1 221047Z 17011KT 08/08 A2985 RMK A01 T00800078  RH  098%=      5-min Rain = 0
KBI1 221048Z 17009KT 08/08 A2985 RMK A01 T00800078  RH  098%=      5-min Rain = 0
KBI1 221049Z 17012KT 08/08 A2985 RMK A01 T00800078  RH  098%=      5-min Rain = 0
KBI1 221050Z 17011KT 08/08 A2985 RMK A01 T00810079  RH  098%=      5-min Rain = 0
KBI1 221051Z 16010KT 08/08 A2986 RMK A01 T00810079  RH  098%=      5-min Rain = 0
KBI1 221052Z 17011KT 08/08 A2986 RMK A01 T00810079  RH  098%=      5-min Rain = 0
KBI1 221053Z 17011KT 08/08 A2986 RMK A01 T00820079  RH  098%=      5-min Rain = 0
KBI1 221054Z 18009KT 08/08 A2986 RMK A01 T00820080  RH  098%=      5-min Rain = 0
KBI1 221055Z 17009KT 08/08 A2986 RMK A01 T00820080  RH  098%=      5-min Rain = 0
KBI1 221056Z 17009KT 08/08 A2986 RMK A01 T00820080  RH  098%=      5-min Rain = 0
KBI1 221057Z 18008KT 08/08 A2986 RMK A01 T00830081  RH  099%=      5-min Rain = 0
KBI1 221058Z 17009KT 08/08 A2986 RMK A01 T00830081  RH  098%=      5-min Rain = 0
KBI1 221059Z 18009KT 08/08 A2986 RMK A01 T00830081  RH  099%=      5-min Rain = 0
KBI1 221100Z 18009KT 08/08 A2986 RMK A01 T00840082  RH  099%=      5-min Rain = 0
KBI1 221101Z 17011KT 08/08 A2986 RMK A01 T00840082  RH  099%=      5-min Rain = 0
KBI1 221102Z 17011KT 09/08 A2986 RMK A01 T00850083  RH  099%=      5-min Rain = 0
KBI1 221103Z 17012KT 09/08 A2986 RMK A01 T00850083  RH  099%=      5-min Rain = 0
KBI1 221104Z 17012KT 09/08 A2986 RMK A01 T00850083  RH  099%=      5-min Rain = 0
KBI1 221105Z 17011KT 09/08 A2986 RMK A01 T00860084  RH  099%=      5-min Rain = 0
KBI1 221106Z 17012KT 09/08 A2986 RMK A01 T00860084  RH  099%=      5-min Rain = 0
KBI1 221107Z 16010G16KT 09/09 A2986 RMK A01 T00870085  RH  099%=      5-min Rain = 0
KBI1 221108Z 16011G16KT 09/09 A2986 RMK A01 T00870085  RH  099%=      5-min Rain = 0
KBI1 221109Z 16013KT 09/09 A2986 RMK A01 T00870085  RH  099%=      5-min Rain = 0
KBI1 221110Z 16013KT 09/09 A2986 RMK A01 T00880086  RH  099%=      5-min Rain = 0
KBI1 221111Z 17012KT 09/09 A2986 RMK A01 T00880087  RH  099%=      5-min Rain = 0
KBI1 221112Z 17013KT 09/09 A2986 RMK A01 T00890087  RH  099%=      5-min Rain = 0
KBI1 221113Z 17012KT 09/09 A2986 RMK A01 T00890088  RH  099%=      5-min Rain = 0
KBI1 221114Z 17012KT 09/09 A2986 RMK A01 T00890087  RH  099%=      5-min Rain = 0
KBI1 221115Z 17011G16KT 09/09 A2986 RMK A01 T00890087  RH  099%=      5-min Rain = 0
KBI1 221116Z 17015KT 09/09 A2986 RMK A01 T00900088  RH  099%=      5-min Rain = 0
KBI1 221117Z 17012KT 09/09 A2986 RMK A01 T00900089  RH  099%=      5-min Rain = 0
KBI1 221118Z 17012G17KT 09/09 A2986 RMK A01 T00910089  RH  099%=      5-min Rain = 0
KBI1 221119Z 17014KT 09/09 A2986 RMK A01 T00910089  RH  099%=      5-min Rain = 0
KBI1 221120Z 18013KT 09/09 A2986 RMK A01 T00910089  RH  099%=      5-min Rain = 0
KBI1 221121Z 18013KT 09/09 A2986 RMK A01 T00910090  RH  099%=      5-min Rain = 0
KBI1 221122Z 17013KT 09/09 A2986 RMK A01 T00910090  RH  099%=      5-min Rain = 0
KBI1 221123Z 18013KT 09/09 A2986 RMK A01 T00920090  RH  099%=      5-min Rain = 0
KBI1 221124Z 18013KT 09/09 A2986 RMK A01 T00920090  RH  099%=      5-min Rain = 0
KBI1 221125Z 17013G18KT 09/09 A2986 RMK A01 T00920090  RH  099%=      5-min Rain = 0
KBI1 221126Z 17012KT 09/09 A2986 RMK A01 T00930091  RH  099%=      5-min Rain = 0
KBI1 221127Z 17012KT 09/09 A2987 RMK A01 T00930091  RH  099%=      5-min Rain = 0
KBI1 221128Z 17013G18KT 09/09 A2986 RMK A01 T00930091  RH  099%=      5-min Rain = 0
KBI1 221129Z 17014KT 09/09 A2986 RMK A01 T00930091  RH  099%=      5-min Rain = 0
KBI1 221130Z 17016KT 09/09 A2986 RMK A01 T00940092  RH  099%=      5-min Rain = 0
KBI1 221131Z 18012G17KT 09/09 A2986 RMK A01 T00940091  RH  099%=      5-min Rain = 0
KBI1 221132Z 17010KT 09/09 A2986 RMK A01 T00940091  RH  098%=      5-min Rain = 0
KBI1 221133Z 17010KT 09/09 A2986 RMK A01 T00940092  RH  098%=      5-min Rain = 0
KBI1 221134Z 17013KT 09/09 A2986 RMK A01 T00940092  RH  098%=      5-min Rain = 0
KBI1 221135Z 17012KT 10/09 A2986 RMK A01 T00950092  RH  098%=      5-min Rain = 0
KBI1 221136Z 17013KT 10/09 A2986 RMK A01 T00950092  RH  098%=      5-min Rain = 0
KBI1 221137Z 17015KT 10/09 A2986 RMK A01 T00950092  RH  098%=      5-min Rain = 0
KBI1 221138Z 17014KT 10/09 A2986 RMK A01 T00950093  RH  098%=      5-min Rain = 0
KBI1 221139Z 17011KT 10/09 A2986 RMK A01 T00950092  RH  098%=      5-min Rain = 0
KBI1 221140Z 17011KT 10/09 A2986 RMK A01 T00950092  RH  098%=      5-min Rain = 0
KBI1 221141Z 17012KT 10/09 A2986 RMK A01 T00960093  RH  098%=      5-min Rain = 0
KBI1 221142Z 17013KT 10/09 A2986 RMK A01 T00960093  RH  098%=      5-min Rain = 0
KBI1 221143Z 17013G18KT 10/09 A2986 RMK A01 T00960093  RH  098%=      5-min Rain = 0
KBI1 221144Z 17014KT 10/09 A2986 RMK A01 T00970093  RH  098%=      5-min Rain = 0
KBI1 221145Z 17016KT 10/09 A2986 RMK A01 T00970093  RH  098%=      5-min Rain = 0
KBI1 221146Z 17014KT 10/09 A2986 RMK A01 T00970093  RH  097%=      5-min Rain = 0
KBI1 221147Z 17014G19KT 10/09 A2986 RMK A01 T00970093  RH  097%=      5-min Rain = 0
KBI1 221148Z 17016KT 10/09 A2986 RMK A01 T00970093  RH  097%=      5-min Rain = 0
KBI1 221149Z 17014KT 10/09 A2986 RMK A01 T00980093  RH  097%=      5-min Rain = 0
KBI1 221150Z 17014KT 10/09 A2987 RMK A01 T00980093  RH  096%=      5-min Rain = 0
KBI1 221151Z 18017KT 10/09 A2987 RMK A01 T00980092  RH  096%=      5-min Rain = 0
KBI1 221152Z 17014G19KT 10/09 A2987 RMK A01 T00980092  RH  096%=      5-min Rain = 0
KBI1 221153Z 17014KT 10/09 A2987 RMK A01 T00980092  RH  096%=      5-min Rain = 0
KBI1 221154Z 17013KT 10/09 A2987 RMK A01 T00980092  RH  096%=      5-min Rain = 0
KBI1 221155Z 18013KT 10/09 A2987 RMK A01 T00990092  RH  096%=      5-min Rain = 0
KBI1 221156Z 18015KT 10/09 A2987 RMK A01 T00990092  RH  096%=      5-min Rain = 0
KBI1 221157Z 18015KT 10/09 A2987 RMK A01 T00990092  RH  095%=      5-min Rain = 0
KBI1 221158Z 17013KT 10/09 A2987 RMK A01 T00990092  RH  095%=      5-min Rain = 0
KBI1 221159Z 17011G17KT 10/09 A2987 RMK A01 T00990092  RH  095%=      5-min Rain = 0
KBI1 221200Z 18017KT 10/09 A2987 RMK A01 T00990092  RH  095%=      5-min Rain = 0
KBI1 221201Z 17013KT 10/09 A2988 RMK A01 T00990092  RH  095%=      5-min Rain = 0
KBI1 221202Z 17013KT 10/09 A2987 RMK A01 T00990091  RH  095%=      5-min Rain = 0
KBI1 221203Z 18015KT 10/09 A2988 RMK A01 T00990091  RH  095%=      5-min Rain = 0
KBI1 221204Z 18014KT 10/09 A2988 RMK A01 T01000092  RH  095%=      5-min Rain = 0
KBI1 221205Z 18013KT 10/09 A2988 RMK A01 T01000092  RH  095%=      5-min Rain = 0
KBI1 221206Z 18012G17KT 10/09 A2988 RMK A01 T01000091  RH  094%=      5-min Rain = 0
KBI1 221207Z 18013KT 10/09 A2988 RMK A01 T01000091  RH  094%=      5-min Rain = 0
KBI1 221208Z 18015KT 10/09 A2988 RMK A01 T01000091  RH  094%=      5-min Rain = 0
KBI1 221209Z 18015G20KT 10/09 A2988 RMK A01 T01000091  RH  094%=      5-min Rain = 0
KBI1 221210Z 18014G19KT 10/09 A2988 RMK A01 T01000091  RH  094%=      5-min Rain = 0
KBI1 221211Z 18014KT 10/09 A2988 RMK A01 T01000091  RH  094%=      5-min Rain = 0
KBI1 221212Z 18016KT 10/09 A2988 RMK A01 T01010091  RH  094%=      5-min Rain = 0
KBI1 221213Z 18015G21KT 10/09 A2988 RMK A01 T01000091  RH  094%=      5-min Rain = 0
KBI1 221214Z 18018KT 10/09 A2988 RMK A01 T01000090  RH  094%=      5-min Rain = 0
KBI1 221215Z 18017KT 10/09 A2988 RMK A01 T01010091  RH  093%=      5-min Rain = 0
KBI1 221216Z 18015G20KT 10/09 A2989 RMK A01 T01000090  RH  093%=      5-min Rain = 0
KBI1 221217Z 18013KT 10/09 A2989 RMK A01 T01000090  RH  093%=      5-min Rain = 0
KBI1 221218Z 18015KT 10/09 A2989 RMK A01 T01000090  RH  093%=      5-min Rain = 0
KBI1 221219Z 18014KT 10/09 A2989 RMK A01 T01000090  RH  093%=      5-min Rain = 0
KBI1 221220Z 17014KT 10/09 A2989 RMK A01 T01000090  RH  093%=      5-min Rain = 0
KBI1 221221Z 18015KT 10/09 A2989 RMK A01 T01000090  RH  093%=      5-min Rain = 0
KBI1 221222Z 18012KT 10/09 A2989 RMK A01 T01000090  RH  094%=      5-min Rain = 0
KBI1 221223Z 17014KT 10/09 A2989 RMK A01 T01000091  RH  094%=      5-min Rain = 0
KBI1 221224Z 17014KT 10/09 A2989 RMK A01 T01000091  RH  094%=      5-min Rain = 0
KBI1 221225Z 17013KT 10/09 A2989 RMK A01 T01000091  RH  094%=      5-min Rain = 0
KBI1 221226Z 17015KT 10/09 A2989 RMK A01 T01000091  RH  094%=      5-min Rain = 0
KBI1 221227Z 18016KT 10/09 A2989 RMK A01 T01000091  RH  094%=      5-min Rain = 0
KBI1 221228Z 18016G23KT 10/09 A2989 RMK A01 T01000091  RH  094%=      5-min Rain = 0
KBI1 221229Z 18019KT 10/09 A2989 RMK A01 T01000091  RH  094%=      5-min Rain = 0
KBI1 221230Z 18016KT 10/09 A2989 RMK A01 T01000090  RH  093%=      5-min Rain = 0
KBI1 221231Z 17016KT 10/09 A2989 RMK A01 T01000090  RH  093%=      5-min Rain = 0
KBI1 221232Z 17014KT 10/09 A2989 RMK A01 T01000090  RH  093%=      5-min Rain = 0
KBI1 221233Z 17014G19KT 10/09 A2989 RMK A01 T01000090  RH  093%=      5-min Rain = 0
KBI1 221234Z 17014KT 10/09 A2989 RMK A01 T01000090  RH  093%=      5-min Rain = 0
KBI1 221235Z 17012KT 10/09 A2989 RMK A01 T01000090  RH  093%=      5-min Rain = 0
KBI1 221236Z 18015KT 10/09 A2989 RMK A01 T01000090  RH  093%=      5-min Rain = 0
KBI1 221237Z 17013KT 10/09 A299 RMK A01 T01000090  RH  094%=      5-min Rain = 0
KBI1 221238Z 17015KT 10/09 A299 RMK A01 T01000090  RH  094%=      5-min Rain = 0
KBI1 221239Z 17012KT 10/09 A299 RMK A01 T01000090  RH  094%=      5-min Rain = 0
KBI1 221240Z 17013G18KT 10/09 A299 RMK A01 T01000091  RH  094%=      5-min Rain = 0
KBI1 221241Z 17015KT 10/09 A299 RMK A01 T01000090  RH  094%=      5-min Rain = 0
KBI1 221242Z 17013KT 10/09 A299 RMK A01 T01000091  RH  094%=      5-min Rain = 0
KBI1 221243Z 17010KT 10/09 A299 RMK A01 T01000091  RH  094%=      5-min Rain = 0
KBI1 221244Z 16009G14KT 10/09 A299 RMK A01 T01000091  RH  094%=      5-min Rain = 0
KBI1 221245Z 17013KT 10/09 A299 RMK A01 T01000091  RH  094%=      5-min Rain = 0
KBI1 221246Z 18013G18KT 10/09 A299 RMK A01 T01000091  RH  094%=      5-min Rain = 0
KBI1 221247Z 17016KT 10/09 A299 RMK A01 T01000090  RH  094%=      5-min Rain = 0
KBI1 221248Z 17017KT 10/09 A299 RMK A01 T01000090  RH  094%=      5-min Rain = 0
KBI1 221249Z 17013G18KT 10/09 A299 RMK A01 T01000090  RH  093%=      5-min Rain = 0
KBI1 221250Z 16010KT 10/09 A299 RMK A01 T01000089  RH  093%=      5-min Rain = 0
KBI1 221251Z 17014KT 10/09 A299 RMK A01 T01000089  RH  093%=      5-min Rain = 0
KBI1 221252Z 17016G21KT 10/09 A299 RMK A01 T01000090  RH  093%=      5-min Rain = 0
KBI1 221253Z 18017KT 10/09 A299 RMK A01 T01000090  RH  093%=      5-min Rain = 0
KBI1 221254Z 18014KT 10/09 A299 RMK A01 T01000089  RH  093%=      5-min Rain = 0
KBI1 221255Z 17013KT 10/09 A2989 RMK A01 T01000090  RH  093%=      5-min Rain = 0
KBI1 221256Z 17014KT 10/09 A299 RMK A01 T01000090  RH  093%=      5-min Rain = 0
KBI1 221257Z 17014G20KT 10/09 A299 RMK A01 T01000090  RH  093%=      5-min Rain = 0
KBI1 221258Z 18016G22KT 10/09 A2989 RMK A01 T01000090  RH  093%=      5-min Rain = 0
KBI1 221259Z 17014KT 10/09 A299 RMK A01 T01000090  RH  093%=      5-min Rain = 0
KBI1 221300Z 17014KT 10/09 A299 RMK A01 T01000090  RH  093%=      5-min Rain = 0
KBI1 221301Z 17015KT 10/09 A299 RMK A01 T01000090  RH  093%=      5-min Rain = 0
KBI1 221302Z 18015G20KT 10/09 A299 RMK A01 T01000090  RH  094%=      5-min Rain = 0
KBI1 221303Z 17016KT 10/09 A299 RMK A01 T01000090  RH  094%=      5-min Rain = 0
KBI1 221304Z 17013KT 10/09 A299 RMK A01 T01000090  RH  094%=      5-min Rain = 0
KBI1 221305Z 18011KT 10/09 A299 RMK A01 T01000090  RH  094%=      5-min Rain = 0
KBI1 221306Z 17011KT 10/09 A299 RMK A01 T01000090  RH  094%=      5-min Rain = 0
KBI1 221307Z 18012KT 10/09 A299 RMK A01 T01000090  RH  094%=      5-min Rain = 0
KBI1 221308Z 18013KT 10/09 A299 RMK A01 T00990090  RH  094%=      5-min Rain = 0
KBI1 221309Z 18011KT 10/09 A299 RMK A01 T00990090  RH  094%=      5-min Rain = 0
KBI1 221310Z 18010KT 10/09 A299 RMK A01 T00990090  RH  094%=      5-min Rain = 0
KBI1 221311Z 18010KT 10/09 A299 RMK A01 T00990090  RH  094%=      5-min Rain = 0
KBI1 221312Z 17008KT 10/09 A299 RMK A01 T00990090  RH  094%=      5-min Rain = 0
KBI1 221313Z 18011KT 10/09 A299 RMK A01 T00990090  RH  094%=      5-min Rain = 0
KBI1 221314Z 18010KT 10/09 A299 RMK A01 T00990090  RH  094%=      5-min Rain = 0
KBI1 221315Z 17008KT 10/09 A299 RMK A01 T00990090  RH  094%=      5-min Rain = 0
KBI1 221316Z 17008KT 10/09 A299 RMK A01 T00990090  RH  094%=      5-min Rain = 0
KBI1 221317Z 17010KT 10/09 A299 RMK A01 T00990090  RH  094%=      5-min Rain = 0
KBI1 221318Z 18009KT 10/09 A299 RMK A01 T00990090  RH  094%=      5-min Rain = 0
KBI1 221319Z 17010KT 10/09 A299 RMK A01 T00990090  RH  094%=      5-min Rain = 0
KBI1 221320Z 17010KT 10/09 A299 RMK A01 T00990090  RH  094%=      5-min Rain = 0
KBI1 221321Z 17010KT 10/09 A299 RMK A01 T00990090  RH  094%=      5-min Rain = 0
KBI1 221322Z 18008KT 10/09 A299 RMK A01 T00990090  RH  094%=      5-min Rain = 0
KBI1 221323Z 18009KT 10/09 A299 RMK A01 T00990090  RH  094%=      5-min Rain = 0
KBI1 221324Z 17010KT 10/09 A299 RMK A01 T00990090  RH  094%=      5-min Rain = 0
KBI1 221325Z 18011KT 10/09 A299 RMK A01 T00980089  RH  094%=      5-min Rain = 0
KBI1 221326Z 18008KT 10/09 A299 RMK A01 T00990090  RH  094%=      5-min Rain = 0
KBI1 221327Z 17009KT 10/09 A299 RMK A01 T00980089  RH  094%=      5-min Rain = 0
KBI1 221328Z 19009G15KT 10/09 A299 RMK A01 T00980089  RH  094%=      5-min Rain = 0
KBI1 221329Z 19009KT 10/09 A299 RMK A01 T00990089  RH  094%=      5-min Rain = 0
KBI1 221330Z 18011G16KT 10/09 A2991 RMK A01 T00980089  RH  094%=      5-min Rain = 0
KBI1 221331Z 18011KT 10/09 A2991 RMK A01 T00980089  RH  094%=      5-min Rain = 0
KBI1 221332Z 19011KT 10/09 A2991 RMK A01 T00980089  RH  094%=      5-min Rain = 0
KBI1 221333Z 19008KT 10/09 A2991 RMK A01 T00990089  RH  094%=      5-min Rain = 0
KBI1 221334Z 18007KT 10/09 A2991 RMK A01 T00990089  RH  094%=      5-min Rain = 0
KBI1 221335Z 17012G17KT 10/09 A2991 RMK A01 T00980088  RH  094%=      5-min Rain = 0
KBI1 221336Z 19010KT 10/09 A2991 RMK A01 T00980088  RH  093%=      5-min Rain = 0
KBI1 221337Z 19010G15KT 10/09 A2991 RMK A01 T00990088  RH  093%=      5-min Rain = 0
KBI1 221338Z 19010KT 10/09 A2991 RMK A01 T00990088  RH  093%=      5-min Rain = 0
KBI1 221339Z 18008KT 10/09 A2991 RMK A01 T00980088  RH  093%=      5-min Rain = 0
KBI1 221340Z 18008KT 10/09 A2991 RMK A01 T00980087  RH  093%=      5-min Rain = 0
KBI1 221341Z 19007KT 10/09 A2991 RMK A01 T00980088  RH  093%=      5-min Rain = 0
KBI1 221342Z 18006KT 10/09 A2991 RMK A01 T00980088  RH  093%=      5-min Rain = 0
KBI1 221343Z 18007KT 10/09 A2991 RMK A01 T00980088  RH  093%=      5-min Rain = 0
KBI1 221344Z 18008KT 10/09 A2991 RMK A01 T00980088  RH  093%=      5-min Rain = 0
KBI1 221345Z 20007KT 10/09 A2991 RMK A01 T00980088  RH  093%=      5-min Rain = 0
KBI1 221346Z 20008KT 10/09 A2991 RMK A01 T00990088  RH  093%=      5-min Rain = 0
KBI1 221347Z 19006KT 10/09 A2991 RMK A01 T00990088  RH  093%=      5-min Rain = 0
KBI1 221348Z 19005KT 10/09 A2991 RMK A01 T00990089  RH  093%=      5-min Rain = 0
KBI1 221349Z 20006KT 10/09 A2991 RMK A01 T00990089  RH  093%=      5-min Rain = 0
KBI1 221350Z 19008KT 10/09 A2991 RMK A01 T00990089  RH  093%=      5-min Rain = 0
KBI1 221351Z 19006KT 10/09 A2991 RMK A01 T00990089  RH  093%=      5-min Rain = 0
KBI1 221352Z 19005KT 10/09 A2991 RMK A01 T00990089  RH  093%=      5-min Rain = 0
KBI1 221353Z 20006KT 10/09 A2991 RMK A01 T00990089  RH  093%=      5-min Rain = 0
KBI1 221354Z 20006KT 10/09 A2992 RMK A01 T00990089  RH  093%=      5-min Rain = 0
KBI1 221355Z 19004KT 10/09 A2992 RMK A01 T00990089  RH  093%=      5-min Rain = 0
KBI1 221356Z 20005KT 10/09 A2992 RMK A01 T00990089  RH  093%=      5-min Rain = 0
KBI1 221357Z 19007KT 10/09 A2992 RMK A01 T00990089  RH  094%=      5-min Rain = 0
KBI1 221358Z 19009KT 10/09 A2992 RMK A01 T00990089  RH  094%=      5-min Rain = 0
KBI1 221359Z 17008KT 10/09 A2992 RMK A01 T00990089  RH  094%=      5-min Rain = 0
KBI1 221400Z 17008KT 10/09 A2992 RMK A01 T00990089  RH  094%=      5-min Rain = 0
KBI1 221401Z 18009KT 10/09 A2992 RMK A01 T00990089  RH  094%=      5-min Rain = 0
KBI1 221402Z 18009KT 10/09 A2992 RMK A01 T00990089  RH  093%=      5-min Rain = 0
KBI1 221403Z 17009KT 10/09 A2992 RMK A01 T00990089  RH  093%=      5-min Rain = 0
KBI1 221404Z 17008KT 10/09 A2992 RMK A01 T00990089  RH  093%=      5-min Rain = 0
KBI1 221405Z 17010KT 10/09 A2992 RMK A01 T00990089  RH  093%=      5-min Rain = 0
KBI1 221406Z 17009KT 10/09 A2992 RMK A01 T00990089  RH  093%=      5-min Rain = 0
KBI1 221407Z 19008KT 10/09 A2992 RMK A01 T00990089  RH  093%=      5-min Rain = 0
KBI1 221408Z 18007KT 10/09 A2992 RMK A01 T00990089  RH  093%=      5-min Rain = 0
KBI1 221409Z 18011KT 10/09 A2992 RMK A01 T00990089  RH  093%=      5-min Rain = 0
KBI1 221410Z 18010KT 10/09 A2992 RMK A01 T00990089  RH  093%=      5-min Rain = 0
KBI1 221411Z 18010KT 10/09 A2992 RMK A01 T00990089  RH  093%=      5-min Rain = 0
KBI1 221412Z 18007KT 10/09 A2992 RMK A01 T00990089  RH  093%=      5-min Rain = 0
KBI1 221413Z 18009KT 10/09 A2993 RMK A01 T00990089  RH  093%=      5-min Rain = 0
KBI1 221414Z 18013KT 10/09 A2993 RMK A01 T00990089  RH  093%=      5-min Rain = 0
KBI1 221415Z 18010KT 10/09 A2993 RMK A01 T00990089  RH  093%=      5-min Rain = 0
KBI1 221416Z 18012KT 10/09 A2993 RMK A01 T00990088  RH  093%=      5-min Rain = 0
KBI1 221417Z 18012KT 10/09 A2993 RMK A01 T01000089  RH  093%=      5-min Rain = 0
KBI1 221418Z 18012KT 10/09 A2993 RMK A01 T01000088  RH  093%=      5-min Rain = 0
KBI1 221419Z 18013KT 10/09 A2993 RMK A01 T01000088  RH  093%=      5-min Rain = 0
KBI1 221420Z 17014KT 10/09 A2993 RMK A01 T01000088  RH  092%=      5-min Rain = 0
KBI1 221421Z 17015KT 10/09 A2993 RMK A01 T01000088  RH  092%=      5-min Rain = 0
KBI1 221422Z 18012KT 10/09 A2993 RMK A01 T01010088  RH  092%=      5-min Rain = 0
KBI1 221423Z 17012KT 10/09 A2993 RMK A01 T01010088  RH  092%=      5-min Rain = 0
KBI1 221424Z 17015KT 10/09 A2993 RMK A01 T01010088  RH  091%=      5-min Rain = 0
KBI1 221425Z 18014KT 10/09 A2993 RMK A01 T01010088  RH  091%=      5-min Rain = 0
KBI1 221426Z 18016KT 10/09 A2993 RMK A01 T01020088  RH  091%=      5-min Rain = 0
KBI1 221427Z 18013KT 10/09 A2993 RMK A01 T01020088  RH  091%=      5-min Rain = 0
KBI1 221428Z 18012KT 10/09 A2993 RMK A01 T01020088  RH  091%=      5-min Rain = 0
KBI1 221429Z 18011KT 10/09 A2993 RMK A01 T01020088  RH  091%=      5-min Rain = 0
KBI1 221430Z 19012KT 10/09 A2994 RMK A01 T01010088  RH  091%=      5-min Rain = 0
KBI1 221431Z 18013KT 10/09 A2993 RMK A01 T01020088  RH  091%=      5-min Rain = 0
KBI1 221432Z 18015KT 10/09 A2993 RMK A01 T01020089  RH  092%=      5-min Rain = 0
KBI1 221433Z 18016KT 10/09 A2993 RMK A01 T01020089  RH  092%=      5-min Rain = 0
KBI1 221434Z 18015KT 10/09 A2993 RMK A01 T01020089  RH  092%=      5-min Rain = 0
KBI1 221435Z 17013KT 10/09 A2993 RMK A01 T01020089  RH  092%=      5-min Rain = 0
KBI1 221436Z 17015KT 10/09 A2993 RMK A01 T01020088  RH  091%=      5-min Rain = 0
KBI1 221437Z 18016KT 10/09 A2993 RMK A01 T01020088  RH  091%=      5-min Rain = 0
KBI1 221438Z 18019KT 10/09 A2993 RMK A01 T01020087  RH  091%=      5-min Rain = 0
KBI1 221439Z 18016KT 10/09 A2993 RMK A01 T01020087  RH  090%=      5-min Rain = 0
KBI1 221440Z 18018KT 10/09 A2993 RMK A01 T01030087  RH  090%=      5-min Rain = 0
KBI1 221441Z 17016KT 10/09 A2993 RMK A01 T01030087  RH  090%=      5-min Rain = 0
KBI1 221442Z 18018KT 10/09 A2993 RMK A01 T01030087  RH  090%=      5-min Rain = 0
KBI1 221443Z 17016KT 10/09 A2993 RMK A01 T01030087  RH  090%=      5-min Rain = 0
KBI1 221444Z 17016KT 10/09 A2993 RMK A01 T01030086  RH  089%=      5-min Rain = 0
KBI1 221445Z 17014KT 10/09 A2994 RMK A01 T01030087  RH  089%=      5-min Rain = 0
KBI1 221446Z 18016G21KT 10/09 A2994 RMK A01 T01040087  RH  089%=      5-min Rain = 0
KBI1 221447Z 17018G23KT 10/09 A2994 RMK A01 T01040087  RH  089%=      5-min Rain = 0
KBI1 221448Z 18016KT 10/09 A2994 RMK A01 T01040087  RH  089%=      5-min Rain = 0
KBI1 221449Z 17017KT 11/09 A2994 RMK A01 T01050087  RH  089%=      5-min Rain = 0
KBI1 221450Z 17017KT 11/09 A2994 RMK A01 T01050087  RH  089%=      5-min Rain = 0
KBI1 221451Z 18014KT 11/09 A2994 RMK A01 T01050087  RH  089%=      5-min Rain = 0
KBI1 221452Z 18013KT 11/09 A2994 RMK A01 T01050087  RH  089%=      5-min Rain = 0
KBI1 221453Z 17015KT 11/09 A2994 RMK A01 T01050088  RH  089%=      5-min Rain = 0
KBI1 221454Z 17013KT 11/09 A2994 RMK A01 T01050087  RH  089%=      5-min Rain = 0
KBI1 221455Z 18011KT 11/09 A2994 RMK A01 T01050087  RH  088%=      5-min Rain = 0
KBI1 221456Z 19012KT 11/09 A2994 RMK A01 T01060088  RH  089%=      5-min Rain = 0
KBI1 221457Z 19012KT 11/09 A2994 RMK A01 T01070088  RH  088%=      5-min Rain = 0
KBI1 221458Z 20012KT 11/09 A2994 RMK A01 T01070087  RH  088%=      5-min Rain = 0
KBI1 221459Z 19012G17KT 11/09 A2994 RMK A01 T01070087  RH  088%=      5-min Rain = 0
KBI1 221500Z 19012KT 11/09 A2994 RMK A01 T01060087  RH  088%=      5-min Rain = 0
KBI1 221501Z 20013KT 11/09 A2994 RMK A01 T01060087  RH  088%=      5-min Rain = 0
KBI1 221502Z 19010KT 11/09 A2994 RMK A01 T01060087  RH  088%=      5-min Rain = 0
KBI1 221503Z 19011KT 11/09 A2995 RMK A01 T01060087  RH  088%=      5-min Rain = 0
KBI1 221504Z 19011G16KT 11/09 A2994 RMK A01 T01060087  RH  088%=      5-min Rain = 0
KBI1 221505Z 18010KT 11/09 A2994 RMK A01 T01060087  RH  088%=      5-min Rain = 0
KBI1 221506Z 18010KT 11/09 A2995 RMK A01 T01060087  RH  088%=      5-min Rain = 0
KBI1 221507Z 18011KT 11/09 A2995 RMK A01 T01060087  RH  088%=      5-min Rain = 0
KBI1 221508Z 19013KT 11/09 A2994 RMK A01 T01070086  RH  087%=      5-min Rain = 0
KBI1 221509Z 18014KT 11/09 A2995 RMK A01 T01060086  RH  087%=      5-min Rain = 0
KBI1 221510Z 18012KT 11/09 A2995 RMK A01 T01060087  RH  088%=      5-min Rain = 0
KBI1 221511Z 18014KT 11/09 A2994 RMK A01 T01060087  RH  088%=      5-min Rain = 0
KBI1 221512Z 18014KT 11/09 A2994 RMK A01 T01060086  RH  087%=      5-min Rain = 0
KBI1 221513Z 18014KT 11/09 A2994 RMK A01 T01060086  RH  087%=      5-min Rain = 0
KBI1 221514Z 18012KT 11/09 A2994 RMK A01 T01070087  RH  088%=      5-min Rain = 0
KBI1 221515Z 18011KT 11/09 A2994 RMK A01 T01070087  RH  087%=      5-min Rain = 0
KBI1 221516Z 18010KT 11/09 A2995 RMK A01 T01080087  RH  087%=      5-min Rain = 0
KBI1 221517Z 19012KT 11/09 A2995 RMK A01 T01080088  RH  087%=      5-min Rain = 0
KBI1 221518Z 18010KT 11/09 A2995 RMK A01 T01080088  RH  087%=      5-min Rain = 0
KBI1 221519Z 19010KT 11/09 A2995 RMK A01 T01090089  RH  087%=      5-min Rain = 0
KBI1 221520Z 20011KT 11/09 A2995 RMK A01 T01090088  RH  087%=      5-min Rain = 0
KBI1 221521Z 18008KT 11/09 A2995 RMK A01 T01100089  RH  087%=      5-min Rain = 0
KBI1 221522Z 17011G16KT 11/09 A2995 RMK A01 T01120090  RH  086%=      5-min Rain = 0
KBI1 221523Z 17012KT 11/09 A2995 RMK A01 T01120088  RH  085%=      5-min Rain = 0
KBI1 221524Z 18013KT 11/09 A2995 RMK A01 T01120087  RH  085%=      5-min Rain = 0
KBI1 221525Z 18013KT 11/09 A2995 RMK A01 T01110086  RH  084%=      5-min Rain = 0
KBI1 221526Z 18010KT 11/09 A2995 RMK A01 T01110088  RH  086%=      5-min Rain = 0
KBI1 221527Z 19012KT 11/09 A2995 RMK A01 T01120087  RH  085%=      5-min Rain = 0
KBI1 221528Z 18011KT 11/09 A2995 RMK A01 T01110085  RH  084%=      5-min Rain = 0
KBI1 221529Z 18009G14KT 11/09 A2995 RMK A01 T01100085  RH  085%=      5-min Rain = 0
KBI1 221530Z 17014KT 11/09 A2995 RMK A01 T01100085  RH  084%=      5-min Rain = 0
KBI1 221531Z 18013KT 11/09 A2995 RMK A01 T01100085  RH  085%=      5-min Rain = 0
KBI1 221532Z 18011KT 11/09 A2995 RMK A01 T01100085  RH  085%=      5-min Rain = 0
KBI1 221533Z 19011KT 11/09 A2995 RMK A01 T01100085  RH  085%=      5-min Rain = 0
KBI1 221534Z 18012KT 11/09 A2995 RMK A01 T01100085  RH  085%=      5-min Rain = 0
KBI1 221535Z 18012KT 11/09 A2995 RMK A01 T01090085  RH  085%=      5-min Rain = 0
KBI1 221536Z 18011KT 11/09 A2995 RMK A01 T01090085  RH  085%=      5-min Rain = 0
KBI1 221537Z 18010KT 11/09 A2995 RMK A01 T01090085  RH  085%=      5-min Rain = 0
KBI1 221538Z 18011KT 11/09 A2995 RMK A01 T01100086  RH  085%=      5-min Rain = 0
KBI1 221539Z 17010KT 11/09 A2995 RMK A01 T01130088  RH  085%=      5-min Rain = 0
KBI1 221540Z 17010KT 12/09 A2995 RMK A01 T01180092  RH  084%=      5-min Rain = 0
KBI1 221541Z 17013KT 12/09 A2995 RMK A01 T01210092  RH  082%=      5-min Rain = 0
KBI1 221542Z 17013KT 12/09 A2995 RMK A01 T01220090  RH  081%=      5-min Rain = 0
KBI1 221543Z 17011KT 12/09 A2995 RMK A01 T01220088  RH  080%=      5-min Rain = 0
KBI1 221544Z 17013KT 12/09 A2995 RMK A01 T01220088  RH  079%=      5-min Rain = 0
KBI1 221545Z 16011KT 12/09 A2995 RMK A01 T01230087  RH  079%=      5-min Rain = 0
KBI1 221546Z 16009KT 12/09 A2995 RMK A01 T01220088  RH  080%=      5-min Rain = 0
KBI1 221547Z 19009KT 12/09 A2995 RMK A01 T01220088  RH  080%=      5-min Rain = 0
KBI1 221548Z 16009KT 12/09 A2995 RMK A01 T01210087  RH  080%=      5-min Rain = 0
KBI1 221549Z 18008KT 12/09 A2995 RMK A01 T01200087  RH  080%=      5-min Rain = 0
KBI1 221550Z 18011KT 12/09 A2995 RMK A01 T01200086  RH  079%=      5-min Rain = 0
KBI1 221551Z 18009KT 12/09 A2995 RMK A01 T01190085  RH  080%=      5-min Rain = 0
KBI1 221552Z 19012KT 12/09 A2995 RMK A01 T01190086  RH  080%=      5-min Rain = 0
KBI1 221553Z 18012KT 12/09 A2995 RMK A01 T01190086  RH  080%=      5-min Rain = 0
KBI1 221554Z 18011KT 12/09 A2995 RMK A01 T01190086  RH  080%=      5-min Rain = 0
KBI1 221555Z 18007KT 12/09 A2995 RMK A01 T01180085  RH  080%=      5-min Rain = 0
KBI1 221556Z 19009KT 12/09 A2995 RMK A01 T01180085  RH  080%=      5-min Rain = 0
KBI1 221557Z 19010KT 12/08 A2995 RMK A01 T01170083  RH  080%=      5-min Rain = 0
KBI1 221558Z 19010KT 12/08 A2995 RMK A01 T01160083  RH  081%=      5-min Rain = 0
KBI1 221559Z 19010KT 12/08 A2995 RMK A01 T01150084  RH  081%=      5-min Rain = 0
KBI1 221600Z 19011KT 11/08 A2995 RMK A01 T01140082  RH  080%=      5-min Rain = 0
KBI1 221601Z 18011KT 11/08 A2995 RMK A01 T01140081  RH  080%=      5-min Rain = 0
KBI1 221602Z 18009KT 11/08 A2995 RMK A01 T01140082  RH  080%=      5-min Rain = 0
KBI1 221603Z 18010KT 12/08 A2995 RMK A01 T01150083  RH  080%=      5-min Rain = 0
KBI1 221604Z 18012KT 12/08 A2995 RMK A01 T01160083  RH  080%=      5-min Rain = 0
KBI1 221605Z 18010KT 12/08 A2995 RMK A01 T01160083  RH  080%=      5-min Rain = 0
KBI1 221606Z 18009KT 12/08 A2994 RMK A01 T01160083  RH  080%=      5-min Rain = 0
KBI1 221607Z 17009KT 12/08 A2994 RMK A01 T01160082  RH  079%=      5-min Rain = 0
KBI1 221608Z 18009KT 12/08 A2995 RMK A01 T01170083  RH  080%=      5-min Rain = 0
KBI1 221609Z 18010KT 12/08 A2995 RMK A01 T01180083  RH  079%=      5-min Rain = 0
KBI1 221610Z 18011KT 12/08 A2994 RMK A01 T01180083  RH  079%=      5-min Rain = 0
KBI1 221611Z 17010KT 12/09 A2994 RMK A01 T01190085  RH  080%=      5-min Rain = 0
KBI1 221612Z 17011KT 12/09 A2994 RMK A01 T01230088  RH  079%=      5-min Rain = 0
KBI1 221613Z 18011KT 13/09 A2994 RMK A01 T01260087  RH  077%=      5-min Rain = 0
KBI1 221614Z 17013KT 13/09 A2994 RMK A01 T01270086  RH  076%=      5-min Rain = 0
KBI1 221615Z 17013KT 13/09 A2994 RMK A01 T01280085  RH  075%=      5-min Rain = 0
KBI1 221616Z 16012KT 13/09 A2994 RMK A01 T01280086  RH  075%=      5-min Rain = 0
KBI1 221617Z 16009KT 13/09 A2994 RMK A01 T01280085  RH  075%=      5-min Rain = 0
KBI1 221618Z 17012KT 13/09 A2994 RMK A01 T01300087  RH  075%=      5-min Rain = 0
KBI1 221619Z 17009KT 13/09 A2994 RMK A01 T01310086  RH  074%=      5-min Rain = 0
KBI1 221620Z 17012KT 13/09 A2994 RMK A01 T01310086  RH  074%=      5-min Rain = 0
KBI1 221621Z 18011KT 13/09 A2994 RMK A01 T01320087  RH  074%=      5-min Rain = 0
KBI1 221622Z 17011KT 13/09 A2994 RMK A01 T01330086  RH  073%=      5-min Rain = 0
KBI1 221623Z 18011KT 13/09 A2994 RMK A01 T01340087  RH  073%=      5-min Rain = 0
KBI1 221624Z 16013KT 13/09 A2993 RMK A01 T01340086  RH  073%=      5-min Rain = 0
KBI1 221625Z 16013KT 13/09 A2993 RMK A01 T01330085  RH  072%=      5-min Rain = 0
KBI1 221626Z 16011KT 13/09 A2993 RMK A01 T01320085  RH  073%=      5-min Rain = 0
KBI1 221627Z 17012KT 13/09 A2993 RMK A01 T01310085  RH  073%=      5-min Rain = 0
KBI1 221628Z 16011KT 13/09 A2993 RMK A01 T01330087  RH  074%=      5-min Rain = 0
KBI1 221629Z 17013KT 13/08 A2993 RMK A01 T01330084  RH  072%=      5-min Rain = 0
KBI1 221630Z 18012KT 13/09 A2993 RMK A01 T01320085  RH  073%=      5-min Rain = 0
KBI1 221631Z 18012KT 13/09 A2993 RMK A01 T01330086  RH  073%=      5-min Rain = 0
KBI1 221632Z 18015KT 13/08 A2993 RMK A01 T01340084  RH  072%=      5-min Rain = 0
KBI1 221633Z 17012KT 13/08 A2993 RMK A01 T01330084  RH  072%=      5-min Rain = 0
KBI1 221634Z 17012KT 13/08 A2993 RMK A01 T01320083  RH  072%=      5-min Rain = 0
KBI1 221635Z 17011KT 13/09 A2993 RMK A01 T01320085  RH  073%=      5-min Rain = 0
KBI1 221636Z 17011KT 14/09 A2993 RMK A01 T01350086  RH  072%=      5-min Rain = 0
KBI1 221637Z 17011KT 14/08 A2993 RMK A01 T01370084  RH  070%=      5-min Rain = 0
KBI1 221638Z 16010KT 14/08 A2993 RMK A01 T01360083  RH  070%=      5-min Rain = 0
KBI1 221639Z 17007KT 14/09 A2993 RMK A01 T01360085  RH  071%=      5-min Rain = 0
KBI1 221640Z 16011KT 14/09 A2993 RMK A01 T01400088  RH  071%=      5-min Rain = 0
KBI1 221641Z 16012KT 14/08 A2993 RMK A01 T01400084  RH  069%=      5-min Rain = 0
KBI1 221642Z 16013KT 14/08 A2993 RMK A01 T01350082  RH  070%=      5-min Rain = 0
KBI1 221643Z 19011KT 13/08 A2993 RMK A01 T01340083  RH  071%=      5-min Rain = 0
KBI1 221644Z 19012KT 14/09 A2993 RMK A01 T01370085  RH  071%=      5-min Rain = 0
KBI1 221645Z 18012KT 14/08 A2992 RMK A01 T01370084  RH  070%=      5-min Rain = 0
KBI1 221646Z 17014KT 14/08 A2992 RMK A01 T01360084  RH  071%=      5-min Rain = 0
KBI1 221647Z 18012KT 14/08 A2993 RMK A01 T01380084  RH  070%=      5-min Rain = 0
KBI1 221648Z 19013KT 14/08 A2993 RMK A01 T01370082  RH  069%=      5-min Rain = 0
KBI1 221649Z 18012KT 14/08 A2993 RMK A01 T01360083  RH  070%=      5-min Rain = 0
KBI1 221650Z 19013KT 14/08 A2992 RMK A01 T01360082  RH  070%=      5-min Rain = 0
KBI1 221651Z 17013KT 14/08 A2992 RMK A01 T01380084  RH  070%=      5-min Rain = 0
KBI1 221652Z 17013KT 14/08 A2992 RMK A01 T01390083  RH  069%=      5-min Rain = 0
KBI1 221653Z 17013KT 14/08 A2992 RMK A01 T01390084  RH  069%=      5-min Rain = 0
KBI1 221654Z 18012KT 14/08 A2992 RMK A01 T01390083  RH  069%=      5-min Rain = 0
KBI1 221655Z 17011KT 14/08 A2992 RMK A01 T01370084  RH  070%=      5-min Rain = 0
KBI1 221656Z 18011KT 14/09 A2992 RMK A01 T01390087  RH  071%=      5-min Rain = 0
KBI1 221657Z 19012KT 14/09 A2992 RMK A01 T01420087  RH  069%=      5-min Rain = 0
KBI1 221658Z 18011KT 14/08 A2992 RMK A01 T01430084  RH  068%=      5-min Rain = 0
KBI1 221659Z 18011KT 14/08 A2992 RMK A01 T01410082  RH  068%=      5-min Rain = 0
KBI1 221700Z 17013KT 14/08 A2992 RMK A01 T01400083  RH  068%=      5-min Rain = 0
KBI1 221701Z 18013KT 14/08 A2992 RMK A01 T01400084  RH  069%=      5-min Rain = 0
KBI1 221702Z 19010KT 14/09 A2992 RMK A01 T01410087  RH  070%=      5-min Rain = 0
KBI1 221703Z 19010KT 14/09 A2992 RMK A01 T01440088  RH  069%=      5-min Rain = 0
KBI1 221704Z 18010KT 15/09 A2992 RMK A01 T01460087  RH  068%=      5-min Rain = 0
KBI1 221705Z 17011KT 15/09 A2992 RMK A01 T01480089  RH  068%=      5-min Rain = 0
KBI1 221706Z 18013KT 15/09 A2992 RMK A01 T01460086  RH  067%=      5-min Rain = 0
KBI1 221707Z 17011KT 14/09 A2992 RMK A01 T01420085  RH  068%=      5-min Rain = 0
KBI1 221708Z 16012KT 14/09 A2992 RMK A01 T01420086  RH  069%=      5-min Rain = 0
KBI1 221709Z 16013KT 14/09 A2992 RMK A01 T01420085  RH  068%=      5-min Rain = 0
KBI1 221710Z 16013KT 14/08 A2992 RMK A01 T01410084  RH  068%=      5-min Rain = 0
KBI1 221711Z 17013KT 14/09 A2992 RMK A01 T01410085  RH  069%=      5-min Rain = 0
KBI1 221712Z 17010KT 14/08 A2992 RMK A01 T01410084  RH  069%=      5-min Rain = 0
KBI1 221713Z 17012KT 14/09 A2992 RMK A01 T01420085  RH  068%=      5-min Rain = 0
KBI1 221714Z 18012KT 14/08 A2992 RMK A01 T01430083  RH  067%=      5-min Rain = 0
KBI1 221715Z 19013KT 14/08 A2992 RMK A01 T01440081  RH  066%=      5-min Rain = 0
KBI1 221716Z 18011KT 14/08 A2992 RMK A01 T01440082  RH  066%=      5-min Rain = 0
KBI1 221717Z 18010KT 15/08 A2992 RMK A01 T01450083  RH  066%=      5-min Rain = 0
KBI1 221718Z 18010KT 15/08 A2992 RMK A01 T01460084  RH  067%=      5-min Rain = 0
KBI1 221719Z 18011KT 15/08 A2992 RMK A01 T01470083  RH  065%=      5-min Rain = 0
KBI1 221720Z 17010KT 15/08 A2992 RMK A01 T01480083  RH  065%=      5-min Rain = 0
KBI1 221721Z 17008KT 15/08 A2992 RMK A01 T01480081  RH  064%=      5-min Rain = 0
KBI1 221722Z 16008KT 15/08 A2992 RMK A01 T01470083  RH  065%=      5-min Rain = 0
KBI1 221723Z 19008KT 15/09 A2992 RMK A01 T01490085  RH  065%=      5-min Rain = 0
KBI1 221724Z 18008KT 15/08 A2992 RMK A01 T01500081  RH  064%=      5-min Rain = 0
KBI1 221725Z 17009KT 15/08 A2991 RMK A01 T01490084  RH  065%=      5-min Rain = 0
KBI1 221726Z 18011KT 15/08 A2991 RMK A01 T01510083  RH  064%=      5-min Rain = 0
KBI1 221727Z 18012KT 15/08 A2991 RMK A01 T01520081  RH  062%=      5-min Rain = 0
KBI1 221728Z 16008KT 15/08 A2991 RMK A01 T01520080  RH  062%=      5-min Rain = 0
KBI1 221729Z 18010KT 15/08 A2991 RMK A01 T01520082  RH  063%=      5-min Rain = 0
KBI1 221730Z 18013KT 15/08 A2991 RMK A01 T01540082  RH  062%=      5-min Rain = 0
KBI1 221731Z 19011KT 15/08 A2991 RMK A01 T01530080  RH  062%=      5-min Rain = 0
KBI1 221732Z 18012KT 15/08 A2991 RMK A01 T01510081  RH  063%=      5-min Rain = 0
KBI1 221733Z 18013KT 15/08 A2991 RMK A01 T01510084  RH  064%=      5-min Rain = 0
KBI1 221734Z 17013KT 15/08 A2991 RMK A01 T01520084  RH  064%=      5-min Rain = 0
KBI1 221735Z 18010KT 15/08 A2991 RMK A01 T01510076  RH  061%=      5-min Rain = 0
KBI1 221736Z 18012G17KT 15/08 A2991 RMK A01 T01510078  RH  062%=      5-min Rain = 0
KBI1 221737Z 19011KT 15/08 A2991 RMK A01 T01510081  RH  063%=      5-min Rain = 0
KBI1 221738Z 17015KT 15/08 A2991 RMK A01 T01540084  RH  063%=      5-min Rain = 0
KBI1 221739Z 17011KT 16/08 A2991 RMK A01 T01560083  RH  062%=      5-min Rain = 0
KBI1 221740Z 17012KT 16/08 A2991 RMK A01 T01550084  RH  063%=      5-min Rain = 0
KBI1 221741Z 18011KT 16/09 A2991 RMK A01 T01560086  RH  063%=      5-min Rain = 0
KBI1 221742Z 18011KT 16/08 A2991 RMK A01 T01570082  RH  061%=      5-min Rain = 0
KBI1 221743Z 18010KT 16/08 A299 RMK A01 T01560080  RH  060%=      5-min Rain = 0
KBI1 221744Z 19013KT 16/08 A299 RMK A01 T01590083  RH  061%=      5-min Rain = 0
KBI1 221745Z 18012KT 16/08 A299 RMK A01 T01600080  RH  059%=      5-min Rain = 0
KBI1 221746Z 18009KT 16/08 A299 RMK A01 T01570079  RH  060%=      5-min Rain = 0
KBI1 221747Z 18011KT 16/08 A299 RMK A01 T01590080  RH  059%=      5-min Rain = 0
KBI1 221748Z 20013KT 16/08 A299 RMK A01 T01610081  RH  059%=      5-min Rain = 0
KBI1 221749Z 19010KT 16/08 A299 RMK A01 T01600081  RH  059%=      5-min Rain = 0
KBI1 221750Z 17010KT 16/08 A299 RMK A01 T01600083  RH  060%=      5-min Rain = 0
KBI1 221751Z 16010KT 16/08 A299 RMK A01 T01600083  RH  060%=      5-min Rain = 0
KBI1 221752Z 16011KT 16/08 A299 RMK A01 T01600083  RH  060%=      5-min Rain = 0
KBI1 221753Z 15010KT 16/08 A299 RMK A01 T01590082  RH  060%=      5-min Rain = 0
KBI1 221754Z 17011KT 16/08 A299 RMK A01 T01590082  RH  060%=      5-min Rain = 0
KBI1 221755Z 18010KT 16/09 A299 RMK A01 T01610085  RH  061%=      5-min Rain = 0
KBI1 221756Z 17010KT 16/08 A299 RMK A01 T01630084  RH  059%=      5-min Rain = 0
KBI1 221757Z 17009KT 16/08 A299 RMK A01 T01630081  RH  058%=      5-min Rain = 0
KBI1 221758Z 17009KT 16/08 A299 RMK A01 T01610084  RH  060%=      5-min Rain = 0
KBI1 221759Z 16008KT 16/08 A299 RMK A01 T01610084  RH  060%=      5-min Rain = 0
KBI1 221800Z 18009KT 16/09 A299 RMK A01 T01620085  RH  060%=      5-min Rain = 0
KBI1 221801Z 19011KT 16/08 A299 RMK A01 T01630078  RH  057%=      5-min Rain = 0
KBI1 221802Z 18011KT 16/07 A299 RMK A01 T01640074  RH  055%=      5-min Rain = 0
KBI1 221803Z 16012KT 16/08 A299 RMK A01 T01640075  RH  056%=      5-min Rain = 0
KBI1 221804Z 18013KT 17/07 A299 RMK A01 T01650074  RH  055%=      5-min Rain = 0
KBI1 221805Z 19012KT 17/08 A299 RMK A01 T01670078  RH  056%=      5-min Rain = 0
KBI1 221806Z 18008KT 17/07 A299 RMK A01 T01670074  RH  054%=      5-min Rain = 0
KBI1 221807Z 18011KT 17/08 A299 RMK A01 T01660076  RH  056%=      5-min Rain = 0
KBI1 221808Z 18008KT 17/08 A299 RMK A01 T01660078  RH  056%=      5-min Rain = 0
KBI1 221809Z 19010KT 17/08 A299 RMK A01 T01680079  RH  056%=      5-min Rain = 0
KBI1 221810Z 20012KT 17/07 A299 RMK A01 T01700071  RH  052%=      5-min Rain = 0
KBI1 221811Z 19013KT 17/07 A299 RMK A01 T01690071  RH  052%=      5-min Rain = 0
KBI1 221812Z 18011KT 17/07 A299 RMK A01 T01680073  RH  053%=      5-min Rain = 0
KBI1 221813Z 18009KT 17/07 A299 RMK A01 T01660072  RH  054%=      5-min Rain = 0
KBI1 221814Z 17014KT 17/07 A299 RMK A01 T01660071  RH  054%=      5-min Rain = 0
KBI1 221815Z 17013KT 17/07 A299 RMK A01 T01660072  RH  054%=      5-min Rain = 0
KBI1 221816Z 16012KT 17/07 A299 RMK A01 T01680073  RH  053%=      5-min Rain = 0
KBI1 221817Z 18011G16KT 17/08 A299 RMK A01 T01670075  RH  054%=      5-min Rain = 0
KBI1 221818Z 19012KT 17/07 A299 RMK A01 T01690073  RH  053%=      5-min Rain = 0
KBI1 221819Z 20011KT 17/07 A299 RMK A01 T01710071  RH  052%=      5-min Rain = 0
KBI1 221820Z 20010KT 17/07 A299 RMK A01 T01720072  RH  052%=      5-min Rain = 0
KBI1 221821Z 18012KT 17/07 A299 RMK A01 T01720074  RH  052%=      5-min Rain = 0
KBI1 221822Z 18013KT 17/07 A299 RMK A01 T01720073  RH  052%=      5-min Rain = 0
KBI1 221823Z 17013KT 17/07 A299 RMK A01 T01680073  RH  054%=      5-min Rain = 0
KBI1 221824Z 17015KT 17/08 A2989 RMK A01 T01680075  RH  054%=      5-min Rain = 0
KBI1 221825Z 17013KT 17/08 A2989 RMK A01 T01680075  RH  054%=      5-min Rain = 0
KBI1 221826Z 18012KT 17/08 A2989 RMK A01 T01690075  RH  054%=      5-min Rain = 0
KBI1 221827Z 18011KT 17/08 A2989 RMK A01 T01690075  RH  054%=      5-min Rain = 0
KBI1 221828Z 18012KT 17/08 A2989 RMK A01 T01710079  RH  055%=      5-min Rain = 0
KBI1 221829Z 19013KT 18/08 A2989 RMK A01 T01760077  RH  052%=      5-min Rain = 0
KBI1 221830Z 19011KT 18/08 A2989 RMK A01 T01750075  RH  052%=      5-min Rain = 0
KBI1 221831Z 21011KT 17/07 A2989 RMK A01 T01740074  RH  052%=      5-min Rain = 0
KBI1 221832Z 21010KT 17/07 A2989 RMK A01 T01720072  RH  052%=      5-min Rain = 0
KBI1 221833Z 19010KT 17/07 A2989 RMK A01 T01690073  RH  053%=      5-min Rain = 0
KBI1 221834Z 18012KT 17/07 A2989 RMK A01 T01690074  RH  053%=      5-min Rain = 0
KBI1 221835Z 18009KT 17/08 A2989 RMK A01 T01690076  RH  054%=      5-min Rain = 0
KBI1 221836Z 19008KT 17/08 A2989 RMK A01 T01710076  RH  053%=      5-min Rain = 0
KBI1 221837Z 17007G13KT 17/08 A2989 RMK A01 T01720077  RH  054%=      5-min Rain = 0
KBI1 221838Z 17011KT 17/08 A2989 RMK A01 T01740078  RH  053%=      5-min Rain = 0
KBI1 221839Z 16008KT 18/08 A2989 RMK A01 T01750077  RH  053%=      5-min Rain = 0
KBI1 221840Z 15007KT 18/08 A2989 RMK A01 T01770076  RH  052%=      5-min Rain = 0
KBI1 221841Z 15006G11KT 18/08 A2989 RMK A01 T01770076  RH  052%=      5-min Rain = 0
KBI1 221842Z 17006KT 18/08 A2989 RMK A01 T01780077  RH  052%=      5-min Rain = 0
KBI1 221843Z 16011KT 18/08 A2989 RMK A01 T01820080  RH  051%=      5-min Rain = 0
KBI1 221844Z 17010KT 18/08 A2989 RMK A01 T01820079  RH  051%=      5-min Rain = 0
KBI1 221845Z 16009KT 18/08 A2988 RMK A01 T01810077  RH  051%=      5-min Rain = 0
KBI1 221846Z 18011KT 18/07 A2988 RMK A01 T01800073  RH  049%=      5-min Rain = 0
KBI1 221847Z 18014KT 18/06 A2988 RMK A01 T01810063  RH  046%=      5-min Rain = 0
KBI1 221848Z 18013KT 18/06 A2988 RMK A01 T01830064  RH  046%=      5-min Rain = 0
KBI1 221849Z 19012KT 19/07 A2988 RMK A01 T01850067  RH  046%=      5-min Rain = 0
KBI1 221850Z 20008KT 18/07 A2988 RMK A01 T01830069  RH  047%=      5-min Rain = 0
KBI1 221851Z 17009KT 18/07 A2988 RMK A01 T01820069  RH  048%=      5-min Rain = 0
KBI1 221852Z 16009KT 18/06 A2988 RMK A01 T01830061  RH  045%=      5-min Rain = 0
KBI1 221853Z 18012KT 18/07 A2988 RMK A01 T01830066  RH  046%=      5-min Rain = 0
KBI1 221854Z 18011KT 18/07 A2988 RMK A01 T01840071  RH  048%=      5-min Rain = 0
KBI1 221855Z 17009KT 18/07 A2988 RMK A01 T01800071  RH  049%=      5-min Rain = 0
KBI1 221856Z 16006KT 18/07 A2988 RMK A01 T01790072  RH  050%=      5-min Rain = 0
KBI1 221857Z 16007KT 18/08 A2988 RMK A01 T01810075  RH  050%=      5-min Rain = 0
KBI1 221858Z 18010KT 18/08 A2988 RMK A01 T01830076  RH  050%=      5-min Rain = 0
KBI1 221859Z 19010KT 18/08 A2987 RMK A01 T01840079  RH  050%=      5-min Rain = 0
KBI1 221900Z 19008KT 19/08 A2987 RMK A01 T01850078  RH  050%=      5-min Rain = 0
KBI1 221901Z 18006KT 19/08 A2987 RMK A01 T01850081  RH  051%=      5-min Rain = 0
KBI1 221902Z 19009KT 19/08 A2987 RMK A01 T01880077  RH  048%=      5-min Rain = 0
KBI1 221903Z 18008KT 19/07 A2987 RMK A01 T01880073  RH  047%=      5-min Rain = 0
KBI1 221904Z 18012KT 19/07 A2987 RMK A01 T01880074  RH  048%=      5-min Rain = 0
KBI1 221905Z 17010KT 19/07 A2987 RMK A01 T01870074  RH  048%=      5-min Rain = 0
KBI1 221906Z 17007KT 18/07 A2987 RMK A01 T01840073  RH  048%=      5-min Rain = 0
KBI1 221907Z 18010KT 19/08 A2987 RMK A01 T01850077  RH  049%=      5-min Rain = 0
KBI1 221908Z 20011KT 19/07 A2987 RMK A01 T01900072  RH  046%=      5-min Rain = 0
KBI1 221909Z 19011KT 19/07 A2987 RMK A01 T01920070  RH  045%=      5-min Rain = 0
KBI1 221910Z 19009KT 19/07 A2987 RMK A01 T01920068  RH  045%=      5-min Rain = 0
KBI1 221911Z 18013KT 19/07 A2987 RMK A01 T01920070  RH  045%=      5-min Rain = 0
KBI1 221912Z 20012G18KT 19/07 A2986 RMK A01 T01910067  RH  044%=      5-min Rain = 0
KBI1 221913Z 20012G17KT 19/05 A2986 RMK A01 T01900051  RH  040%=      5-min Rain = 0
KBI1 221914Z 21011KT 19/05 A2986 RMK A01 T01910054  RH  041%=      5-min Rain = 0
KBI1 221915Z 22010KT 19/06 A2986 RMK A01 T01940056  RH  040%=      5-min Rain = 0
KBI1 221916Z 21008KT 20/06 A2986 RMK A01 T01950055  RH  040%=      5-min Rain = 0
KBI1 221917Z 17009KT 20/07 A2986 RMK A01 T01950067  RH  043%=      5-min Rain = 0
KBI1 221918Z 16008KT 19/08 A2986 RMK A01 T01930080  RH  048%=      5-min Rain = 0
KBI1 221919Z 16010KT 19/08 A2986 RMK A01 T01930080  RH  048%=      5-min Rain = 0
KBI1 221920Z 17008KT 20/07 A2986 RMK A01 T01950071  RH  045%=      5-min Rain = 0
KBI1 221921Z 19011KT 19/07 A2986 RMK A01 T01940065  RH  043%=      5-min Rain = 0
KBI1 221922Z 19012G18KT 20/07 A2986 RMK A01 T01950065  RH  043%=      5-min Rain = 0
KBI1 221923Z 17009KT 19/07 A2986 RMK A01 T01930073  RH  046%=      5-min Rain = 0
KBI1 221924Z 17009KT 19/08 A2986 RMK A01 T01930077  RH  047%=      5-min Rain = 0
KBI1 221925Z 18010KT 19/07 A2986 RMK A01 T01920070  RH  045%=      5-min Rain = 0
KBI1 221926Z 19012KT 19/05 A2986 RMK A01 T01940053  RH  040%=      5-min Rain = 0
KBI1 221927Z 19011KT 19/05 A2986 RMK A01 T01930054  RH  040%=      5-min Rain = 0
KBI1 221928Z 18011KT 19/06 A2986 RMK A01 T01930058  RH  041%=      5-min Rain = 0
KBI1 221929Z 17011KT 19/06 A2986 RMK A01 T01930056  RH  041%=      5-min Rain = 0
KBI1 221930Z 17015KT 20/06 A2985 RMK A01 T01960062  RH  042%=      5-min Rain = 0
KBI1 221931Z 19009G14KT 19/06 A2986 RMK A01 T01940059  RH  041%=      5-min Rain = 0
KBI1 221932Z 19010KT 19/06 A2985 RMK A01 T01930061  RH  042%=      5-min Rain = 0
KBI1 221933Z 18008KT 19/06 A2985 RMK A01 T01940060  RH  042%=      5-min Rain = 0
KBI1 221934Z 20010KT 20/07 A2985 RMK A01 T01960068  RH  043%=      5-min Rain = 0
KBI1 221935Z 19011KT 20/07 A2985 RMK A01 T01990069  RH  043%=      5-min Rain = 0
KBI1 221936Z 19011KT 20/07 A2985 RMK A01 T02000066  RH  042%=      5-min Rain = 0
KBI1 221937Z 19010KT 20/06 A2985 RMK A01 T01970064  RH  042%=      5-min Rain = 0
KBI1 221938Z 18012KT 20/06 A2985 RMK A01 T01970062  RH  041%=      5-min Rain = 0
KBI1 221939Z 19015KT 20/06 A2985 RMK A01 T01980057  RH  040%=      5-min Rain = 0
KBI1 221940Z 20013KT 20/06 A2985 RMK A01 T01990057  RH  039%=      5-min Rain = 0
KBI1 221941Z 20010KT 20/06 A2985 RMK A01 T01980059  RH  040%=      5-min Rain = 0
KBI1 221942Z 21009KT 20/06 A2984 RMK A01 T01980063  RH  042%=      5-min Rain = 0
KBI1 221943Z 18011KT 20/06 A2984 RMK A01 T01970063  RH  041%=      5-min Rain = 0
KBI1 221944Z 19013KT 20/05 A2984 RMK A01 T01990053  RH  038%=      5-min Rain = 0
KBI1 221945Z 18014KT 20/06 A2984 RMK A01 T01990057  RH  039%=      5-min Rain = 0
KBI1 221946Z 18010KT 20/06 A2984 RMK A01 T01970058  RH  040%=      5-min Rain = 0
KBI1 221947Z 19009KT 20/06 A2984 RMK A01 T01960057  RH  040%=      5-min Rain = 0
KBI1 221948Z 18010KT 20/06 A2984 RMK A01 T01970058  RH  040%=      5-min Rain = 0
KBI1 221949Z 18013KT 20/06 A2984 RMK A01 T01970061  RH  041%=      5-min Rain = 0
KBI1 221950Z 17009KT 20/07 A2984 RMK A01 T01960068  RH  043%=      5-min Rain = 0
KBI1 221951Z 16014G19KT 20/07 A2984 RMK A01 T01960068  RH  043%=      5-min Rain = 0
KBI1 221952Z 16012KT 20/07 A2984 RMK A01 T01960066  RH  043%=      5-min Rain = 0
KBI1 221953Z 17011KT 20/07 A2984 RMK A01 T01950067  RH  043%=      5-min Rain = 0
KBI1 221954Z 16010KT 20/07 A2984 RMK A01 T01950069  RH  044%=      5-min Rain = 0
KBI1 221955Z 16011KT 20/07 A2983 RMK A01 T01960069  RH  044%=      5-min Rain = 0
KBI1 221956Z 16007KT 20/07 A2983 RMK A01 T01960069  RH  043%=      5-min Rain = 0
KBI1 221957Z 15009KT 20/07 A2983 RMK A01 T01960070  RH  044%=      5-min Rain = 0
KBI1 221958Z 15009KT 20/07 A2983 RMK A01 T01970069  RH  043%=      5-min Rain = 0
KBI1 221959Z 15008KT 20/07 A2983 RMK A01 T01980069  RH  043%=      5-min Rain = 0
KBI1 222000Z 15008KT 20/07 A2983 RMK A01 T01980071  RH  044%=      5-min Rain = 0
KBI1 222001Z 16013KT 20/07 A2983 RMK A01 T01980072  RH  044%=      5-min Rain = 0
KBI1 222002Z 17011KT 20/07 A2983 RMK A01 T01970070  RH  043%=      5-min Rain = 0
KBI1 222003Z 18011KT 20/07 A2983 RMK A01 T01960070  RH  044%=      5-min Rain = 0
KBI1 222004Z 16009KT 20/07 A2983 RMK A01 T01970071  RH  044%=      5-min Rain = 0
KBI1 222005Z 16008KT 20/07 A2983 RMK A01 T01980073  RH  044%=      5-min Rain = 0
KBI1 222006Z 15010KT 20/07 A2983 RMK A01 T02000073  RH  044%=      5-min Rain = 0
KBI1 222007Z 17011KT 20/07 A2983 RMK A01 T02010072  RH  043%=      5-min Rain = 0
KBI1 222008Z 18011KT 20/07 A2983 RMK A01 T02010071  RH  043%=      5-min Rain = 0
KBI1 222009Z 18009KT 20/07 A2983 RMK A01 T01990070  RH  043%=      5-min Rain = 0
KBI1 222010Z 15008KT 20/07 A2983 RMK A01 T01980069  RH  043%=      5-min Rain = 0
KBI1 222011Z 15007KT 20/07 A2983 RMK A01 T01980068  RH  043%=      5-min Rain = 0
KBI1 222012Z 16007KT 20/08 A2983 RMK A01 T02000075  RH  044%=      5-min Rain = 0
KBI1 222013Z 15008KT 20/07 A2983 RMK A01 T02020072  RH  043%=      5-min Rain = 0
KBI1 222014Z 14008KT 20/07 A2982 RMK A01 T02020069  RH  042%=      5-min Rain = 0
KBI1 222015Z 16010G15KT 20/07 A2982 RMK A01 T02020070  RH  042%=      5-min Rain = 0
KBI1 222016Z 17013KT 20/07 A2982 RMK A01 T02010071  RH  043%=      5-min Rain = 0
KBI1 222017Z 16011KT 20/07 A2982 RMK A01 T02000072  RH  043%=      5-min Rain = 0
KBI1 222018Z 16009G14KT 20/07 A2982 RMK A01 T02000071  RH  043%=      5-min Rain = 0
KBI1 222019Z 16013KT 20/07 A2982 RMK A01 T01990072  RH  044%=      5-min Rain = 0
KBI1 222020Z 17011KT 20/07 A2982 RMK A01 T01980071  RH  044%=      5-min Rain = 0
KBI1 222021Z 16010KT 20/07 A2982 RMK A01 T01970072  RH  044%=      5-min Rain = 0
KBI1 222022Z 17011KT 20/07 A2982 RMK A01 T01960073  RH  045%=      5-min Rain = 0
KBI1 222023Z 17014KT 20/07 A2982 RMK A01 T01980073  RH  044%=      5-min Rain = 0
KBI1 222024Z 17013KT 20/07 A2982 RMK A01 T02000072  RH  043%=      5-min Rain = 0
KBI1 222025Z 17010KT 20/07 A2982 RMK A01 T01980073  RH  044%=      5-min Rain = 0
KBI1 222026Z 17010KT 20/07 A2982 RMK A01 T01970073  RH  044%=      5-min Rain = 0
KBI1 222027Z 16009KT 20/07 A2982 RMK A01 T01980073  RH  044%=      5-min Rain = 0
KBI1 222028Z 16011KT 20/07 A2982 RMK A01 T01980071  RH  044%=      5-min Rain = 0
KBI1 222029Z 15009KT 20/07 A2982 RMK A01 T01980071  RH  044%=      5-min Rain = 0
KBI1 222030Z 16010KT 20/07 A2982 RMK A01 T01970071  RH  044%=      5-min Rain = 0
KBI1 222031Z 17009KT 20/07 A2982 RMK A01 T01970070  RH  044%=      5-min Rain = 0
KBI1 222032Z 16010KT 20/07 A2982 RMK A01 T01980072  RH  044%=      5-min Rain = 0
KBI1 222033Z 15007KT 20/07 A2981 RMK A01 T01980070  RH  044%=      5-min Rain = 0
KBI1 222034Z 14007KT 20/07 A2981 RMK A01 T01970072  RH  044%=      5-min Rain = 0
KBI1 222035Z 13011KT 20/07 A2981 RMK A01 T01980072  RH  044%=      5-min Rain = 0
KBI1 222036Z 13007KT 20/07 A2981 RMK A01 T01980072  RH  044%=      5-min Rain = 0
KBI1 222037Z 14007KT 20/07 A2981 RMK A01 T01980073  RH  044%=      5-min Rain = 0
KBI1 222038Z 15008KT 20/07 A2981 RMK A01 T01990071  RH  043%=      5-min Rain = 0
KBI1 222039Z 16009KT 20/07 A2981 RMK A01 T02000067  RH  042%=      5-min Rain = 0
KBI1 222040Z 16008KT 20/06 A2981 RMK A01 T02000064  RH  041%=      5-min Rain = 0
KBI1 222041Z 16007KT 20/07 A2981 RMK A01 T02010067  RH  042%=      5-min Rain = 0
KBI1 222042Z 16010KT 20/06 A2981 RMK A01 T02020062  RH  040%=      5-min Rain = 0
KBI1 222043Z 16010KT 20/07 A2981 RMK A01 T02020066  RH  041%=      5-min Rain = 0
KBI1 222044Z 17014KT 20/06 A2981 RMK A01 T02020064  RH  041%=      5-min Rain = 0
KBI1 222045Z 17013KT 20/06 A2981 RMK A01 T02040058  RH  039%=      5-min Rain = 0
KBI1 222046Z 17009KT 20/06 A2981 RMK A01 T02020059  RH  039%=      5-min Rain = 0
KBI1 222047Z 16009KT 20/06 A2981 RMK A01 T02030062  RH  040%=      5-min Rain = 0
KBI1 222048Z 16009KT 20/07 A2981 RMK A01 T02040069  RH  042%=      5-min Rain = 0
KBI1 222049Z 17013KT 21/07 A2981 RMK A01 T02050069  RH  041%=      5-min Rain = 0
KBI1 222050Z 17012KT 20/07 A2981 RMK A01 T02040068  RH  041%=      5-min Rain = 0
KBI1 222051Z 16010KT 20/07 A2981 RMK A01 T02020068  RH  042%=      5-min Rain = 0
KBI1 222052Z 16007KT 20/07 A2981 RMK A01 T02010068  RH  042%=      5-min Rain = 0
KBI1 222053Z 16008KT 20/07 A298 RMK A01 T02020070  RH  042%=      5-min Rain = 0
KBI1 222054Z 15009KT 20/07 A298 RMK A01 T02030069  RH  042%=      5-min Rain = 0
KBI1 222055Z 17007KT 20/07 A298 RMK A01 T02020070  RH  042%=      5-min Rain = 0
KBI1 222056Z 18009KT 20/07 A298 RMK A01 T02030073  RH  043%=      5-min Rain = 0
KBI1 222057Z 17011KT 21/07 A298 RMK A01 T02050071  RH  042%=      5-min Rain = 0
KBI1 222058Z 18010KT 21/07 A298 RMK A01 T02050070  RH  042%=      5-min Rain = 0
KBI1 222059Z 16009KT 21/07 A298 RMK A01 T02050070  RH  042%=      5-min Rain = 0
KBI1 222100Z 16012KT 21/07 A298 RMK A01 T02050070  RH  041%=      5-min Rain = 0
KBI1 222101Z 17012KT 21/07 A298 RMK A01 T02050066  RH  040%=      5-min Rain = 0
KBI1 222102Z 17011KT 21/06 A298 RMK A01 T02050064  RH  040%=      5-min Rain = 0
KBI1 222103Z 17011KT 21/07 A298 RMK A01 T02060065  RH  040%=      5-min Rain = 0
KBI1 222104Z 16008KT 21/07 A298 RMK A01 T02050068  RH  041%=      5-min Rain = 0
KBI1 222105Z 15009KT 21/07 A298 RMK A01 T02060069  RH  041%=      5-min Rain = 0
KBI1 222106Z 14009KT 21/07 A298 RMK A01 T02060068  RH  041%=      5-min Rain = 0
KBI1 222107Z 15009KT 21/07 A298 RMK A01 T02060070  RH  041%=      5-min Rain = 0
KBI1 222108Z 17012KT 21/07 A298 RMK A01 T02070069  RH  041%=      5-min Rain = 0
KBI1 222109Z 17010KT 21/07 A298 RMK A01 T02070067  RH  040%=      5-min Rain = 0
KBI1 222110Z 16009KT 21/07 A298 RMK A01 T02070067  RH  040%=      5-min Rain = 0
KBI1 222111Z 15010KT 21/07 A2979 RMK A01 T02060069  RH  041%=      5-min Rain = 0
KBI1 222112Z 15010KT 21/07 A298 RMK A01 T02050068  RH  041%=      5-min Rain = 0
KBI1 222113Z 16011KT 20/07 A298 RMK A01 T02040068  RH  041%=      5-min Rain = 0
KBI1 222114Z 14009KT 20/07 A298 RMK A01 T02020069  RH  042%=      5-min Rain = 0
KBI1 222115Z 14009KT 20/07 A298 RMK A01 T02010069  RH  042%=      5-min Rain = 0
KBI1 222116Z 13010KT 20/07 A298 RMK A01 T02030070  RH  042%=      5-min Rain = 0
KBI1 222117Z 12010G15KT 20/07 A2979 RMK A01 T02030070  RH  042%=      5-min Rain = 0
KBI1 222118Z 13008G13KT 20/07 A2979 RMK A01 T02030069  RH  042%=      5-min Rain = 0
KBI1 222119Z 15009KT 21/07 A2979 RMK A01 T02050071  RH  042%=      5-min Rain = 0
KBI1 222120Z 14008KT 21/07 A2979 RMK A01 T02070069  RH  041%=      5-min Rain = 0
KBI1 222121Z 13009KT 21/07 A2979 RMK A01 T02070067  RH  040%=      5-min Rain = 0
KBI1 222122Z 14010KT 21/07 A2979 RMK A01 T02070066  RH  040%=      5-min Rain = 0
KBI1 222123Z 13009KT 20/06 A2979 RMK A01 T02040063  RH  040%=      5-min Rain = 0
KBI1 222124Z 13008KT 20/07 A2979 RMK A01 T02020065  RH  041%=      5-min Rain = 0
KBI1 222125Z 14011G16KT 20/07 A2979 RMK A01 T02030066  RH  041%=      5-min Rain = 0
KBI1 222126Z 15008KT 20/07 A2979 RMK A01 T02040065  RH  040%=      5-min Rain = 0
KBI1 222127Z 13010KT 21/06 A2979 RMK A01 T02050064  RH  040%=      5-min Rain = 0
KBI1 222128Z 15009KT 21/06 A2979 RMK A01 T02050064  RH  040%=      5-min Rain = 0
KBI1 222129Z 16012KT 21/06 A2979 RMK A01 T02050063  RH  040%=      5-min Rain = 0
KBI1 222130Z 15013KT 21/06 A2979 RMK A01 T02050061  RH  039%=      5-min Rain = 0
KBI1 222131Z 13010KT 20/06 A2979 RMK A01 T02030060  RH  039%=      5-min Rain = 0
KBI1 222132Z 13007KT 20/06 A2979 RMK A01 T02030059  RH  039%=      5-min Rain = 0
KBI1 222133Z 14007KT 20/06 A2979 RMK A01 T02030060  RH  039%=      5-min Rain = 0
KBI1 222134Z 17011KT 21/06 A2979 RMK A01 T02050061  RH  039%=      5-min Rain = 0
KBI1 222135Z 17011KT 21/06 A2979 RMK A01 T02050061  RH  039%=      5-min Rain = 0
KBI1 222136Z 17011KT 21/06 A2979 RMK A01 T02050058  RH  038%=      5-min Rain = 0
KBI1 222137Z 17010G15KT 21/06 A2979 RMK A01 T02050062  RH  039%=      5-min Rain = 0
KBI1 222138Z 16012KT 21/06 A2979 RMK A01 T02070061  RH  039%=      5-min Rain = 0
KBI1 222139Z 15012KT 21/06 A2979 RMK A01 T02070061  RH  038%=      5-min Rain = 0
KBI1 222140Z 15010KT 21/06 A2979 RMK A01 T02060058  RH  038%=      5-min Rain = 0
KBI1 222141Z 15006KT 20/06 A2979 RMK A01 T02040057  RH  038%=      5-min Rain = 0
KBI1 222142Z 16011KT 21/06 A2978 RMK A01 T02050058  RH  038%=      5-min Rain = 0
KBI1 222143Z 17013KT 21/06 A2978 RMK A01 T02060061  RH  039%=      5-min Rain = 0
KBI1 222144Z 16011KT 21/06 A2978 RMK A01 T02050060  RH  039%=      5-min Rain = 0
KBI1 222145Z 15012KT 21/06 A2978 RMK A01 T02050058  RH  038%=      5-min Rain = 0
KBI1 222146Z 16013KT 20/05 A2978 RMK A01 T02040054  RH  037%=      5-min Rain = 0
KBI1 222147Z 15008KT 20/06 A2978 RMK A01 T02040055  RH  038%=      5-min Rain = 0
KBI1 222148Z 16008KT 20/06 A2978 RMK A01 T02040058  RH  039%=      5-min Rain = 0
KBI1 222149Z 15006KT 21/06 A2978 RMK A01 T02050058  RH  038%=      5-min Rain = 0
KBI1 222150Z 15011KT 21/06 A2978 RMK A01 T02060058  RH  038%=      5-min Rain = 0
KBI1 222151Z 16012KT 21/06 A2978 RMK A01 T02060058  RH  038%=      5-min Rain = 0
KBI1 222152Z 17012G17KT 21/06 A2978 RMK A01 T02050059  RH  038%=      5-min Rain = 0
KBI1 222153Z 17014KT 21/06 A2978 RMK A01 T02060056  RH  037%=      5-min Rain = 0
KBI1 222154Z 16014KT 21/05 A2978 RMK A01 T02070054  RH  037%=      5-min Rain = 0
KBI1 222155Z 17010KT 21/05 A2978 RMK A01 T02050054  RH  037%=      5-min Rain = 0
KBI1 222156Z 17010KT 21/05 A2978 RMK A01 T02050054  RH  037%=      5-min Rain = 0
KBI1 222157Z 17010KT 20/06 A2978 RMK A01 T02040055  RH  038%=      5-min Rain = 0
KBI1 222158Z 16011G16KT 21/06 A2978 RMK A01 T02050058  RH  038%=      5-min Rain = 0
KBI1 222159Z 16012KT 21/06 A2978 RMK A01 T02050057  RH  038%=      5-min Rain = 0
KBI1 222200Z 15009KT 21/06 A2978 RMK A01 T02050056  RH  038%=      5-min Rain = 0
KBI1 222201Z 15006KT 21/06 A2978 RMK A01 T02050058  RH  038%=      5-min Rain = 0
KBI1 222202Z 17010KT 21/06 A2978 RMK A01 T02070057  RH  038%=      5-min Rain = 0
KBI1 222203Z 17012KT 21/05 A2978 RMK A01 T02080053  RH  036%=      5-min Rain = 0
KBI1 222204Z 18013KT 21/05 A2978 RMK A01 T02080053  RH  036%=      5-min Rain = 0
KBI1 222205Z 17012KT 21/06 A2978 RMK A01 T02070056  RH  037%=      5-min Rain = 0
KBI1 222206Z 16013KT 21/06 A2978 RMK A01 T02080057  RH  037%=      5-min Rain = 0
KBI1 222207Z 17012KT 21/06 A2978 RMK A01 T02080057  RH  037%=      5-min Rain = 0
KBI1 222208Z 18013KT 21/06 A2978 RMK A01 T02070059  RH  038%=      5-min Rain = 0
KBI1 222209Z 16011KT 21/06 A2978 RMK A01 T02060060  RH  039%=      5-min Rain = 0
KBI1 222210Z 17012KT 20/06 A2978 RMK A01 T02040059  RH  039%=      5-min Rain = 0
KBI1 222211Z 15011KT 20/06 A2978 RMK A01 T02040057  RH  038%=      5-min Rain = 0
KBI1 222212Z 15012KT 20/05 A2978 RMK A01 T02040051  RH  037%=      5-min Rain = 0
KBI1 222213Z 15011KT 21/05 A2978 RMK A01 T02050046  RH  035%=      5-min Rain = 0
KBI1 222214Z 15010KT 21/04 A2978 RMK A01 T02050043  RH  035%=      5-min Rain = 0
KBI1 222215Z 15010KT 21/05 A2977 RMK A01 T02050048  RH  035%=      5-min Rain = 0
KBI1 222216Z 15008KT 21/05 A2977 RMK A01 T02050050  RH  036%=      5-min Rain = 0
KBI1 222217Z 15008KT 21/05 A2977 RMK A01 T02050051  RH  036%=      5-min Rain = 0
KBI1 222218Z 15007KT 21/05 A2977 RMK A01 T02060051  RH  036%=      5-min Rain = 0
KBI1 222219Z 15008KT 21/05 A2977 RMK A01 T02060051  RH  036%=      5-min Rain = 0
KBI1 222220Z 15010KT 21/05 A2977 RMK A01 T02060051  RH  036%=      5-min Rain = 0
KBI1 222221Z 16007KT 21/05 A2977 RMK A01 T02050054  RH  037%=      5-min Rain = 0
KBI1 222222Z 15011KT 21/06 A2977 RMK A01 T02060055  RH  037%=      5-min Rain = 0
KBI1 222223Z 15010KT 21/05 A2977 RMK A01 T02070054  RH  037%=      5-min Rain = 0
KBI1 222224Z 16008KT 21/06 A2977 RMK A01 T02060055  RH  037%=      5-min Rain = 0
KBI1 222225Z 15008KT 21/06 A2977 RMK A01 T02060055  RH  037%=      5-min Rain = 0
KBI1 222226Z 16011KT 21/05 A2977 RMK A01 T02070049  RH  035%=      5-min Rain = 0
KBI1 222227Z 17014KT 21/05 A2977 RMK A01 T02080049  RH  035%=      5-min Rain = 0
KBI1 222228Z 16012G17KT 21/05 A2977 RMK A01 T02080052  RH  036%=      5-min Rain = 0
KBI1 222229Z 16011KT 21/05 A2977 RMK A01 T02070053  RH  036%=      5-min Rain = 0
KBI1 222230Z 17013KT 21/05 A2977 RMK A01 T02060049  RH  036%=      5-min Rain = 0
KBI1 222231Z 17013KT 21/05 A2978 RMK A01 T02060049  RH  036%=      5-min Rain = 0
KBI1 222232Z 16009KT 21/05 A2978 RMK A01 T02070051  RH  036%=      5-min Rain = 0
KBI1 222233Z 16010KT 21/05 A2978 RMK A01 T02090050  RH  035%=      5-min Rain = 0
KBI1 222234Z 16010KT 21/05 A2978 RMK A01 T02080050  RH  035%=      5-min Rain = 0
KBI1 222235Z 16009KT 21/05 A2978 RMK A01 T02080050  RH  035%=      5-min Rain = 0
KBI1 222236Z 17009KT 21/05 A2978 RMK A01 T02080050  RH  036%=      5-min Rain = 0
KBI1 222237Z 17011KT 21/05 A2977 RMK A01 T02100046  RH  034%=      5-min Rain = 0
KBI1 222238Z 17010KT 21/05 A2977 RMK A01 T02110045  RH  034%=      5-min Rain = 0
KBI1 222239Z 16009KT 21/05 A2977 RMK A01 T02110048  RH  034%=      5-min Rain = 0
KBI1 222240Z 16012KT 21/05 A2977 RMK A01 T02110048  RH  034%=      5-min Rain = 0
KBI1 222241Z 16012KT 21/05 A2977 RMK A01 T02110047  RH  034%=      5-min Rain = 0
KBI1 222242Z 17012KT 21/04 A2977 RMK A01 T02090044  RH  034%=      5-min Rain = 0
KBI1 222243Z 17010KT 21/05 A2977 RMK A01 T02080045  RH  034%=      5-min Rain = 0
KBI1 222244Z 16011KT 21/05 A2977 RMK A01 T02080045  RH  034%=      5-min Rain = 0
KBI1 222245Z 16015KT 21/04 A2977 RMK A01 T02090042  RH  033%=      5-min Rain = 0
KBI1 222246Z 17013KT 21/04 A2977 RMK A01 T02090042  RH  034%=      5-min Rain = 0
KBI1 222247Z 17012KT 21/04 A2977 RMK A01 T02090044  RH  034%=      5-min Rain = 0
KBI1 222248Z 16010G16KT 21/04 A2977 RMK A01 T02090044  RH  034%=      5-min Rain = 0
KBI1 222249Z 16013KT 21/04 A2977 RMK A01 T02090044  RH  034%=      5-min Rain = 0
KBI1 222250Z 18013KT 21/05 A2977 RMK A01 T02090045  RH  034%=      5-min Rain = 0
KBI1 222251Z 16011KT 21/05 A2977 RMK A01 T02090047  RH  035%=      5-min Rain = 0
KBI1 222252Z 17014KT 21/05 A2977 RMK A01 T02080045  RH  034%=      5-min Rain = 0
KBI1 222253Z 17015KT 21/05 A2977 RMK A01 T02080046  RH  035%=      5-min Rain = 0
KBI1 222254Z 17013KT 21/05 A2977 RMK A01 T02070045  RH  034%=      5-min Rain = 0
KBI1 222255Z 17013KT 21/05 A2977 RMK A01 T02070047  RH  035%=      5-min Rain = 0
KBI1 222256Z 17013KT 21/05 A2977 RMK A01 T02080045  RH  035%=      5-min Rain = 0
KBI1 222257Z 17012KT 21/05 A2977 RMK A01 T02070047  RH  035%=      5-min Rain = 0
KBI1 222258Z 16011KT 21/05 A2977 RMK A01 T02080050  RH  036%=      5-min Rain = 0
KBI1 222259Z 17010KT 21/05 A2977 RMK A01 T02080051  RH  036%=      5-min Rain = 0
KBI1 222300Z 16010G15KT 21/05 A2977 RMK A01 T02090052  RH  036%=      5-min Rain = 0
KBI1 222301Z 17013KT 21/05 A2977 RMK A01 T02090051  RH  035%=      5-min Rain = 0
KBI1 222302Z 18014KT 21/05 A2977 RMK A01 T02100051  RH  035%=      5-min Rain = 0
KBI1 222303Z 17013KT 21/05 A2977 RMK A01 T02100048  RH  034%=      5-min Rain = 0
KBI1 222304Z 17014KT 21/05 A2977 RMK A01 T02100048  RH  035%=      5-min Rain = 0
KBI1 222305Z 16011G16KT 21/05 A2977 RMK A01 T02100048  RH  035%=      5-min Rain = 0
KBI1 222306Z 17011KT 21/05 A2977 RMK A01 T02100050  RH  035%=      5-min Rain = 0
KBI1 222307Z 17011KT 21/05 A2977 RMK A01 T02100049  RH  035%=      5-min Rain = 0
KBI1 222308Z 17009G14KT 21/05 A2977 RMK A01 T02100051  RH  036%=      5-min Rain = 0
KBI1 222309Z 16011KT 21/05 A2977 RMK A01 T02090052  RH  036%=      5-min Rain = 0
KBI1 222310Z 15012KT 21/05 A2977 RMK A01 T02100052  RH  036%=      5-min Rain = 0
KBI1 222311Z 15013KT 21/05 A2977 RMK A01 T02090050  RH  035%=      5-min Rain = 0
KBI1 222312Z 16012KT 21/05 A2977 RMK A01 T02090051  RH  035%=      5-min Rain = 0
KBI1 222313Z 17012KT 21/05 A2977 RMK A01 T02080051  RH  036%=      5-min Rain = 0
KBI1 222314Z 17013KT 21/05 A2976 RMK A01 T02080052  RH  036%=      5-min Rain = 0
KBI1 222315Z 17012KT 21/05 A2976 RMK A01 T02080052  RH  036%=      5-min Rain = 0
KBI1 222316Z 17013KT 21/05 A2976 RMK A01 T02080051  RH  036%=      5-min Rain = 0
KBI1 222317Z 17013KT 21/05 A2976 RMK A01 T02090046  RH  035%=      5-min Rain = 0
KBI1 222318Z 17011KT 21/05 A2976 RMK A01 T02080048  RH  035%=      5-min Rain = 0
KBI1 222319Z 17012KT 21/05 A2976 RMK A01 T02090049  RH  035%=      5-min Rain = 0
KBI1 222320Z 16012G18KT 21/05 A2976 RMK A01 T02090051  RH  035%=      5-min Rain = 0
KBI1 222321Z 16014G19KT 21/05 A2976 RMK A01 T02090048  RH  035%=      5-min Rain = 0
KBI1 222322Z 15014KT 21/05 A2976 RMK A01 T02090046  RH  034%=      5-min Rain = 0
KBI1 222323Z 15013KT 21/05 A2976 RMK A01 T02080045  RH  034%=      5-min Rain = 0
KBI1 222324Z 16012KT 21/04 A2976 RMK A01 T02070044  RH  034%=      5-min Rain = 0
KBI1 222325Z 16013G18KT 21/04 A2976 RMK A01 T02070044  RH  034%=      5-min Rain = 0
KBI1 222326Z 16015G21KT 21/05 A2976 RMK A01 T02060046  RH  035%=      5-min Rain = 0
KBI1 222327Z 16014KT 21/05 A2976 RMK A01 T02060047  RH  035%=      5-min Rain = 0
KBI1 222328Z 16014KT 21/05 A2976 RMK A01 T02060048  RH  035%=      5-min Rain = 0
KBI1 222329Z 16014KT 21/05 A2976 RMK A01 T02060049  RH  036%=      5-min Rain = 0
KBI1 222330Z 17014KT 21/05 A2976 RMK A01 T02050050  RH  036%=      5-min Rain = 0
KBI1 222331Z 17014KT 21/05 A2976 RMK A01 T02050050  RH  036%=      5-min Rain = 0
KBI1 222332Z 16011KT 21/05 A2976 RMK A01 T02050050  RH  036%=      5-min Rain = 0
KBI1 222333Z 17012KT 21/05 A2976 RMK A01 T02050051  RH  036%=      5-min Rain = 0
KBI1 222334Z 16011KT 21/05 A2976 RMK A01 T02050051  RH  036%=      5-min Rain = 0
KBI1 222335Z 16013KT 21/05 A2976 RMK A01 T02050049  RH  036%=      5-min Rain = 0
KBI1 222336Z 17011KT 20/05 A2976 RMK A01 T02040050  RH  036%=      5-min Rain = 0
KBI1 222337Z 17014KT 20/05 A2976 RMK A01 T02040047  RH  036%=      5-min Rain = 0
KBI1 222338Z 17013KT 20/05 A2976 RMK A01 T02040046  RH  035%=      5-min Rain = 0
KBI1 222339Z 17013KT 20/05 A2976 RMK A01 T02040045  RH  035%=      5-min Rain = 0
KBI1 222340Z 17013G19KT 20/05 A2976 RMK A01 T02040045  RH  035%=      5-min Rain = 0
KBI1 222341Z 17014KT 20/04 A2976 RMK A01 T02040042  RH  035%=      5-min Rain = 0
KBI1 222342Z 16013KT 20/04 A2976 RMK A01 T02030042  RH  035%=      5-min Rain = 0
KBI1 222343Z 16012KT 20/04 A2976 RMK A01 T02030043  RH  035%=      5-min Rain = 0
KBI1 222344Z 16011KT 20/04 A2977 RMK A01 T02030043  RH  035%=      5-min Rain = 0
KBI1 222345Z 16013KT 20/04 A2977 RMK A01 T02030043  RH  035%=      5-min Rain = 0
KBI1 222346Z 16011KT 20/04 A2977 RMK A01 T02030043  RH  035%=      5-min Rain = 0
KBI1 222347Z 16010KT 20/04 A2977 RMK A01 T02030044  RH  035%=      5-min Rain = 0
KBI1 222348Z 17013KT 20/04 A2977 RMK A01 T02030044  RH  035%=      5-min Rain = 0
KBI1 222349Z 17010KT 20/05 A2977 RMK A01 T02020045  RH  035%=      5-min Rain = 0
KBI1 222350Z 17011KT 20/04 A2977 RMK A01 T02020044  RH  036%=      5-min Rain = 0
KBI1 222351Z 17009KT 20/05 A2977 RMK A01 T02020045  RH  036%=      5-min Rain = 0
KBI1 222352Z 17010KT 20/05 A2977 RMK A01 T02020046  RH  036%=      5-min Rain = 0
KBI1 222353Z 17013KT 20/04 A2977 RMK A01 T02020044  RH  035%=      5-min Rain = 0
KBI1 222354Z 17014KT 20/04 A2977 RMK A01 T02020043  RH  035%=      5-min Rain = 0
KBI1 222355Z 17013KT 20/04 A2977 RMK A01 T02010040  RH  035%=      5-min Rain = 0
KBI1 222356Z 17014KT 20/04 A2977 RMK A01 T02010039  RH  034%=      5-min Rain = 0
KBI1 222357Z 16013KT 20/04 A2977 RMK A01 T02010040  RH  035%=      5-min Rain = 0
KBI1 222358Z 16014KT 20/04 A2977 RMK A01 T02000039  RH  035%=      5-min Rain = 0
KBI1 222359Z 16011KT 20/04 A2977 RMK A01 T02000040  RH  035%=      5-min Rain = 0
KBI1 230000Z 17011KT 20/04 A2977 RMK A01 T02000041  RH  035%=      5-min Rain = 0
KBI1 230001Z 17012KT 20/04 A2977 RMK A01 T01990042  RH  035%=      5-min Rain = 0
KBI1 230002Z 16011KT 20/04 A2977 RMK A01 T01990041  RH  035%=      5-min Rain = 0
KBI1 230003Z 16010KT 20/04 A2977 RMK A01 T01990042  RH  036%=      5-min Rain = 0
KBI1 230004Z 16010KT 20/04 A2977 RMK A01 T01980042  RH  036%=      5-min Rain = 0
KBI1 230005Z 16010KT 20/04 A2977 RMK A01 T01980042  RH  036%=      5-min Rain = 0
KBI1 230006Z 17011KT 20/04 A2977 RMK A01 T01980041  RH  036%=      5-min Rain = 0
KBI1 230007Z 17012KT 20/04 A2977 RMK A01 T01970041  RH  036%=      5-min Rain = 0
KBI1 230008Z 17011KT 20/04 A2977 RMK A01 T01970041  RH  036%=      5-min Rain = 0
KBI1 230009Z 16007KT 20/04 A2977 RMK A01 T01970042  RH  036%=      5-min Rain = 0
KBI1 230010Z 16012KT 20/04 A2977 RMK A01 T01960042  RH  036%=      5-min Rain = 0
KBI1 230011Z 17011KT 20/04 A2977 RMK A01 T01960041  RH  036%=      5-min Rain = 0
KBI1 230012Z 16010KT 20/04 A2977 RMK A01 T01950042  RH  036%=      5-min Rain = 0
KBI1 230013Z 16008KT 20/04 A2977 RMK A01 T01950043  RH  037%=      5-min Rain = 0
KBI1 230014Z 16008KT 19/04 A2977 RMK A01 T01940043  RH  037%=      5-min Rain = 0
KBI1 230015Z 16008KT 19/04 A2977 RMK A01 T01930043  RH  037%=      5-min Rain = 0
KBI1 230016Z 16008KT 19/04 A2977 RMK A01 T01930044  RH  037%=      5-min Rain = 0
KBI1 230017Z 16006KT 19/04 A2977 RMK A01 T01920043  RH  037%=      5-min Rain = 0
KBI1 230018Z 16007KT 19/04 A2977 RMK A01 T01920043  RH  037%=      5-min Rain = 0
KBI1 230019Z 16008KT 19/04 A2977 RMK A01 T01920043  RH  037%=      5-min Rain = 0
KBI1 230020Z 15007KT 19/04 A2977 RMK A01 T01920043  RH  037%=      5-min Rain = 0
KBI1 230021Z 15007KT 19/04 A2977 RMK A01 T01910043  RH  037%=      5-min Rain = 0
KBI1 230022Z 15007KT 19/04 A2977 RMK A01 T01910043  RH  038%=      5-min Rain = 0
KBI1 230023Z 15009KT 19/04 A2977 RMK A01 T01900043  RH  038%=      5-min Rain = 0
KBI1 230024Z 16008KT 19/04 A2977 RMK A01 T01900043  RH  038%=      5-min Rain = 0
KBI1 230025Z 15008KT 19/04 A2977 RMK A01 T01890043  RH  038%=      5-min Rain = 0
KBI1 230026Z 15007KT 19/04 A2977 RMK A01 T01890044  RH  038%=      5-min Rain = 0
KBI1 230027Z 15008KT 19/04 A2977 RMK A01 T01880044  RH  039%=      5-min Rain = 0
KBI1 230028Z 15006KT 19/04 A2977 RMK A01 T01880044  RH  039%=      5-min Rain = 0
KBI1 230029Z 14007KT 19/04 A2976 RMK A01 T01870044  RH  039%=      5-min Rain = 0
KBI1 230030Z 14006KT 19/04 A2976 RMK A01 T01870044  RH  039%=      5-min Rain = 0
KBI1 230031Z 15008KT 19/04 A2976 RMK A01 T01860043  RH  039%=      5-min Rain = 0
KBI1 230032Z 15007KT 19/04 A2976 RMK A01 T01860044  RH  039%=      5-min Rain = 0
KBI1 230033Z 15006KT 19/04 A2976 RMK A01 T01850043  RH  039%=      5-min Rain = 0
KBI1 230034Z 15008KT 18/04 A2976 RMK A01 T01840044  RH  039%=      5-min Rain = 0
KBI1 230035Z 15006KT 18/04 A2976 RMK A01 T01830043  RH  039%=      5-min Rain = 0
KBI1 230036Z 15008KT 18/04 A2976 RMK A01 T01830043  RH  039%=      5-min Rain = 0
KBI1 230037Z 15006KT 18/04 A2976 RMK A01 T01820042  RH  039%=      5-min Rain = 0
KBI1 230038Z 15007KT 18/04 A2976 RMK A01 T01820042  RH  040%=      5-min Rain = 0
KBI1 230039Z 16007KT 18/04 A2976 RMK A01 T01810042  RH  040%=      5-min Rain = 0
KBI1 230040Z 15007KT 18/04 A2976 RMK A01 T01810042  RH  040%=      5-min Rain = 0
KBI1 230041Z 15008KT 18/04 A2976 RMK A01 T01800041  RH  040%=      5-min Rain = 0
KBI1 230042Z 16008KT 18/04 A2976 RMK A01 T01800041  RH  040%=      5-min Rain = 0
KBI1 230043Z 15007KT 18/04 A2976 RMK A01 T01790041  RH  040%=      5-min Rain = 0
KBI1 230044Z 15007KT 18/04 A2976 RMK A01 T01790041  RH  040%=      5-min Rain = 0
KBI1 230045Z 15007KT 18/04 A2976 RMK A01 T01780041  RH  040%=      5-min Rain = 0
KBI1 230046Z 15007KT 18/04 A2976 RMK A01 T01770040  RH  040%=      5-min Rain = 0
KBI1 230047Z 15008KT 18/04 A2976 RMK A01 T01780041  RH  040%=      5-min Rain = 0
KBI1 230048Z 15008KT 18/04 A2976 RMK A01 T01770040  RH  040%=      5-min Rain = 0
KBI1 230049Z 15006KT 18/04 A2976 RMK A01 T01760040  RH  040%=      5-min Rain = 0
KBI1 230050Z 14007KT 18/04 A2976 RMK A01 T01760040  RH  041%=      5-min Rain = 0
KBI1 230051Z 15006KT 18/04 A2976 RMK A01 T01750040  RH  041%=      5-min Rain = 0
KBI1 230052Z 14006KT 17/04 A2976 RMK A01 T01740040  RH  041%=      5-min Rain = 0
KBI1 230053Z 14006KT 17/04 A2975 RMK A01 T01740040  RH  041%=      5-min Rain = 0
KBI1 230054Z 14007KT 17/04 A2975 RMK A01 T01730040  RH  041%=      5-min Rain = 0
KBI1 230055Z 14006KT 17/04 A2976 RMK A01 T01730039  RH  041%=      5-min Rain = 0
KBI1 230056Z 14005KT 17/04 A2976 RMK A01 T01730039  RH  041%=      5-min Rain = 0
KBI1 230057Z 13007KT 17/04 A2976 RMK A01 T01720039  RH  041%=      5-min Rain = 0
KBI1 230058Z 14006KT 17/04 A2976 RMK A01 T01720039  RH  041%=      5-min Rain = 0
KBI1 230059Z 14006KT 17/04 A2976 RMK A01 T01710039  RH  041%=      5-min Rain = 0
KBI1 230100Z 14006KT 17/04 A2976 RMK A01 T01700039  RH  042%=      5-min Rain = 0
KBI1 230101Z 14006KT 17/04 A2976 RMK A01 T01700039  RH  042%=      5-min Rain = 0
KBI1 230102Z 13006KT 17/04 A2976 RMK A01 T01700039  RH  042%=      5-min Rain = 0
KBI1 230103Z 13006KT 17/04 A2976 RMK A01 T01690039  RH  042%=      5-min Rain = 0
KBI1 230104Z 12007KT 17/04 A2976 RMK A01 T01680038  RH  042%=      5-min Rain = 0
KBI1 230105Z 13007KT 17/04 A2976 RMK A01 T01670038  RH  042%=      5-min Rain = 0
KBI1 230106Z 13006KT 17/04 A2976 RMK A01 T01650038  RH  043%=      5-min Rain = 0
KBI1 230107Z 12006KT 16/04 A2976 RMK A01 T01640038  RH  043%=      5-min Rain = 0
KBI1 230108Z 13007KT 16/04 A2976 RMK A01 T01640039  RH  043%=      5-min Rain = 0
KBI1 230109Z 14006KT 16/04 A2976 RMK A01 T01630039  RH  044%=      5-min Rain = 0
KBI1 230110Z 14007KT 16/04 A2976 RMK A01 T01620039  RH  044%=      5-min Rain = 0
KBI1 230111Z 14007KT 16/04 A2976 RMK A01 T01620039  RH  044%=      5-min Rain = 0
KBI1 230112Z 14008KT 16/04 A2976 RMK A01 T01630040  RH  044%=      5-min Rain = 0
KBI1 230113Z 14007KT 16/04 A2976 RMK A01 T01630040  RH  044%=      5-min Rain = 0
KBI1 230114Z 13008KT 16/04 A2976 RMK A01 T01630039  RH  044%=      5-min Rain = 0
KBI1 230115Z 14008KT 16/04 A2976 RMK A01 T01630040  RH  044%=      5-min Rain = 0
KBI1 230116Z 14007KT 16/04 A2976 RMK A01 T01630040  RH  044%=      5-min Rain = 0
KBI1 230117Z 14007KT 16/04 A2976 RMK A01 T01630040  RH  044%=      5-min Rain = 0
KBI1 230118Z 13008KT 16/04 A2975 RMK A01 T01630041  RH  044%=      5-min Rain = 0
KBI1 230119Z 13008KT 16/04 A2975 RMK A01 T01620041  RH  044%=      5-min Rain = 0
KBI1 230120Z 14008KT 16/04 A2975 RMK A01 T01630042  RH  044%=      5-min Rain = 0
KBI1 230121Z 13008KT 16/04 A2975 RMK A01 T01630042  RH  044%=      5-min Rain = 0
KBI1 230122Z 13009KT 16/04 A2975 RMK A01 T01640043  RH  045%=      5-min Rain = 0
KBI1 230123Z 13009KT 16/04 A2975 RMK A01 T01640044  RH  045%=      5-min Rain = 0
KBI1 230124Z 14009G14KT 16/04 A2975 RMK A01 T01630044  RH  045%=      5-min Rain = 0
KBI1 230125Z 14009KT 16/05 A2975 RMK A01 T01630045  RH  045%=      5-min Rain = 0
KBI1 230126Z 14009G14KT 16/05 A2975 RMK A01 T01630046  RH  046%=      5-min Rain = 0
KBI1 230127Z 14009KT 16/05 A2975 RMK A01 T01630046  RH  046%=      5-min Rain = 0
KBI1 230128Z 14009KT 16/05 A2975 RMK A01 T01620046  RH  046%=      5-min Rain = 0
KBI1 230129Z 13010KT 16/05 A2975 RMK A01 T01630047  RH  046%=      5-min Rain = 0
KBI1 230130Z 14011KT 16/05 A2975 RMK A01 T01630047  RH  046%=      5-min Rain = 0
KBI1 230131Z 13008KT 16/05 A2975 RMK A01 T01630047  RH  046%=      5-min Rain = 0
KBI1 230132Z 14009KT 16/05 A2975 RMK A01 T01630047  RH  046%=      5-min Rain = 0
KBI1 230133Z 13009KT 16/05 A2975 RMK A01 T01630047  RH  046%=      5-min Rain = 0
KBI1 230134Z 14008KT 16/05 A2975 RMK A01 T01620047  RH  046%=      5-min Rain = 0
KBI1 230135Z 14010KT 16/05 A2975 RMK A01 T01610047  RH  047%=      5-min Rain = 0
KBI1 230136Z 13010KT 16/05 A2975 RMK A01 T01620047  RH  046%=      5-min Rain = 0
KBI1 230137Z 13009KT 16/05 A2975 RMK A01 T01620047  RH  046%=      5-min Rain = 0
KBI1 230138Z 13009KT 16/05 A2975 RMK A01 T01610047  RH  047%=      5-min Rain = 0
KBI1 230139Z 13009KT 16/05 A2975 RMK A01 T01610047  RH  047%=      5-min Rain = 0
KBI1 230140Z 13009KT 16/05 A2975 RMK A01 T01600047  RH  047%=      5-min Rain = 0
KBI1 230141Z 13010KT 16/05 A2975 RMK A01 T01590047  RH  047%=      5-min Rain = 0
KBI1 230142Z 13008KT 16/05 A2975 RMK A01 T01590047  RH  047%=      5-min Rain = 0
KBI1 230143Z 13008KT 16/05 A2975 RMK A01 T01590047  RH  047%=      5-min Rain = 0
KBI1 230144Z 13007KT 16/05 A2975 RMK A01 T01580047  RH  048%=      5-min Rain = 0
KBI1 230145Z 13009KT 16/05 A2975 RMK A01 T01580047  RH  048%=      5-min Rain = 0
KBI1 230146Z 13010KT 16/05 A2975 RMK A01 T01580047  RH  047%=      5-min Rain = 0
KBI1 230147Z 14009KT 16/05 A2975 RMK A01 T01590047  RH  047%=      5-min Rain = 0
KBI1 230148Z 13009KT 16/05 A2975 RMK A01 T01600047  RH  047%=      5-min Rain = 0
KBI1 230149Z 13008KT 16/05 A2975 RMK A01 T01590047  RH  047%=      5-min Rain = 0
KBI1 230150Z 13008KT 16/05 A2975 RMK A01 T01580047  RH  048%=      5-min Rain = 0
KBI1 230151Z 13007KT 16/05 A2975 RMK A01 T01570047  RH  048%=      5-min Rain = 0
KBI1 230152Z 13008KT 16/05 A2975 RMK A01 T01560047  RH  048%=      5-min Rain = 0
KBI1 230153Z 13008KT 16/05 A2975 RMK A01 T01550046  RH  048%=      5-min Rain = 0
KBI1 230154Z 13008KT 15/05 A2975 RMK A01 T01540046  RH  048%=      5-min Rain = 0
KBI1 230155Z 12008KT 15/05 A2975 RMK A01 T01530046  RH  049%=      5-min Rain = 0
KBI1 230156Z 12008KT 15/05 A2975 RMK A01 T01510046  RH  049%=      5-min Rain = 0
KBI1 230157Z 12008KT 15/05 A2975 RMK A01 T01510046  RH  049%=      5-min Rain = 0
KBI1 230158Z 12007KT 15/05 A2976 RMK A01 T01510046  RH  050%=      5-min Rain = 0
KBI1 230159Z 13008KT 15/05 A2976 RMK A01 T01510046  RH  050%=      5-min Rain = 0
KBI1 230200Z 13007KT 15/05 A2976 RMK A01 T01500046  RH  050%=      5-min Rain = 0
KBI1 230201Z 12008KT 15/05 A2975 RMK A01 T01490046  RH  050%=      5-min Rain = 0
KBI1 230202Z 11007KT 15/05 A2975 RMK A01 T01480047  RH  051%=      5-min Rain = 0
KBI1 230203Z 12007KT 15/05 A2975 RMK A01 T01470047  RH  051%=      5-min Rain = 0
KBI1 230204Z 12006KT 15/05 A2975 RMK A01 T01460047  RH  051%=      5-min Rain = 0
KBI1 230205Z 12006KT 15/05 A2975 RMK A01 T01460047  RH  052%=      5-min Rain = 0
KBI1 230206Z 12006KT 15/05 A2975 RMK A01 T01460048  RH  052%=      5-min Rain = 0
KBI1 230207Z 13007KT 15/05 A2975 RMK A01 T01460048  RH  052%=      5-min Rain = 0
KBI1 230208Z 12008KT 15/05 A2975 RMK A01 T01460048  RH  052%=      5-min Rain = 0
KBI1 230209Z 12007KT 15/05 A2975 RMK A01 T01460049  RH  052%=      5-min Rain = 0
KBI1 230210Z 12009KT 15/05 A2975 RMK A01 T01460049  RH  052%=      5-min Rain = 0
KBI1 230211Z 13008KT 15/05 A2975 RMK A01 T01450049  RH  052%=      5-min Rain = 0
KBI1 230212Z 13006KT 15/05 A2975 RMK A01 T01460050  RH  053%=      5-min Rain = 0
KBI1 230213Z 13007KT 15/05 A2975 RMK A01 T01450050  RH  053%=      5-min Rain = 0
KBI1 230214Z 12008KT 14/05 A2975 RMK A01 T01440050  RH  053%=      5-min Rain = 0
KBI1 230215Z 12008KT 14/05 A2975 RMK A01 T01430051  RH  054%=      5-min Rain = 0
KBI1 230216Z 12008KT 14/05 A2975 RMK A01 T01430051  RH  054%=      5-min Rain = 0
KBI1 230217Z 12009KT 14/05 A2975 RMK A01 T01430052  RH  054%=      5-min Rain = 0
KBI1 230218Z 12009KT 14/05 A2975 RMK A01 T01430052  RH  055%=      5-min Rain = 0
KBI1 230219Z 12008KT 14/05 A2975 RMK A01 T01430053  RH  055%=      5-min Rain = 0
KBI1 230220Z 11008KT 14/05 A2975 RMK A01 T01430054  RH  055%=      5-min Rain = 0
KBI1 230221Z 12008KT 14/05 A2975 RMK A01 T01420054  RH  055%=      5-min Rain = 0
KBI1 230222Z 12008KT 14/05 A2975 RMK A01 T01420054  RH  055%=      5-min Rain = 0
KBI1 230223Z 12009KT 14/05 A2975 RMK A01 T01420054  RH  055%=      5-min Rain = 0
KBI1 230224Z 12009KT 14/05 A2975 RMK A01 T01420054  RH  055%=      5-min Rain = 0
KBI1 230225Z 12010KT 14/05 A2975 RMK A01 T01420054  RH  055%=      5-min Rain = 0
KBI1 230226Z 12009KT 14/05 A2975 RMK A01 T01420054  RH  055%=      5-min Rain = 0
KBI1 230227Z 12008KT 14/05 A2974 RMK A01 T01420054  RH  055%=      5-min Rain = 0
KBI1 230228Z 12009KT 14/06 A2974 RMK A01 T01420055  RH  056%=      5-min Rain = 0
KBI1 230229Z 12010KT 14/06 A2974 RMK A01 T01420055  RH  056%=      5-min Rain = 0
KBI1 230230Z 12008KT 14/06 A2975 RMK A01 T01410055  RH  056%=      5-min Rain = 0
KBI1 230231Z 12009KT 14/06 A2975 RMK A01 T01410055  RH  056%=      5-min Rain = 0
KBI1 230232Z 12009KT 14/06 A2974 RMK A01 T01400055  RH  056%=      5-min Rain = 0
KBI1 230233Z 12010KT 14/06 A2974 RMK A01 T01410055  RH  056%=      5-min Rain = 0
KBI1 230234Z 12010KT 14/06 A2974 RMK A01 T01400055  RH  057%=      5-min Rain = 0
KBI1 230235Z 12010KT 14/06 A2974 RMK A01 T01400056  RH  057%=      5-min Rain = 0
KBI1 230236Z 12010KT 14/06 A2974 RMK A01 T01400056  RH  057%=      5-min Rain = 0
KBI1 230237Z 12009KT 14/06 A2974 RMK A01 T01400056  RH  057%=      5-min Rain = 0
KBI1 230238Z 12008KT 14/06 A2974 RMK A01 T01400057  RH  057%=      5-min Rain = 0
KBI1 230239Z 12009KT 14/06 A2974 RMK A01 T01400057  RH  057%=      5-min Rain = 0
KBI1 230240Z 12008KT 14/06 A2974 RMK A01 T01390057  RH  058%=      5-min Rain = 0
KBI1 230241Z 12008KT 14/06 A2974 RMK A01 T01390057  RH  058%=      5-min Rain = 0
KBI1 230242Z 12008KT 14/06 A2974 RMK A01 T01380058  RH  058%=      5-min Rain = 0
KBI1 230243Z 12007KT 14/06 A2974 RMK A01 T01380058  RH  058%=      5-min Rain = 0
KBI1 230244Z 12008KT 14/06 A2974 RMK A01 T01370058  RH  059%=      5-min Rain = 0
KBI1 230245Z 12008KT 14/06 A2974 RMK A01 T01370059  RH  059%=      5-min Rain = 0
KBI1 230246Z 12009KT 14/06 A2974 RMK A01 T01370059  RH  059%=      5-min Rain = 0
KBI1 230247Z 13010KT 14/06 A2974 RMK A01 T01360059  RH  060%=      5-min Rain = 0
KBI1 230248Z 13009KT 14/06 A2974 RMK A01 T01360059  RH  060%=      5-min Rain = 0
KBI1 230249Z 13009KT 14/06 A2974 RMK A01 T01350059  RH  060%=      5-min Rain = 0
KBI1 230250Z 13009KT 14/06 A2974 RMK A01 T01350060  RH  060%=      5-min Rain = 0
KBI1 230251Z 13009KT 14/06 A2974 RMK A01 T01350060  RH  061%=      5-min Rain = 0
KBI1 230252Z 13010KT 13/06 A2974 RMK A01 T01340060  RH  061%=      5-min Rain = 0
KBI1 230253Z 13009KT 13/06 A2974 RMK A01 T01340061  RH  061%=      5-min Rain = 0
KBI1 230254Z 13010KT 13/06 A2974 RMK A01 T01330061  RH  061%=      5-min Rain = 0
KBI1 230255Z 12010KT 13/06 A2974 RMK A01 T01330061  RH  062%=      5-min Rain = 0
KBI1 230256Z 12011KT 13/06 A2973 RMK A01 T01330061  RH  062%=      5-min Rain = 0
KBI1 230257Z 12011KT 13/06 A2973 RMK A01 T01320061  RH  062%=      5-min Rain = 0
KBI1 230258Z 13010KT 13/06 A2974 RMK A01 T01320061  RH  062%=      5-min Rain = 0
KBI1 230259Z 13009KT 13/06 A2974 RMK A01 T01320061  RH  062%=      5-min Rain = 0
KBI1 230300Z 12010KT 13/06 A2974 RMK A01 T01310062  RH  063%=      5-min Rain = 0
KBI1 230301Z 13010KT 13/06 A2973 RMK A01 T01310062  RH  063%=      5-min Rain = 0
KBI1 230302Z 13011KT 13/06 A2973 RMK A01 T01310062  RH  063%=      5-min Rain = 0
KBI1 230303Z 14009KT 13/06 A2974 RMK A01 T01300062  RH  063%=      5-min Rain = 0
KBI1 230304Z 13010KT 13/06 A2974 RMK A01 T01300062  RH  063%=      5-min Rain = 0
KBI1 230305Z 14009KT 13/06 A2974 RMK A01 T01300063  RH  063%=      5-min Rain = 0
KBI1 230306Z 15008KT 13/06 A2974 RMK A01 T01300063  RH  064%=      5-min Rain = 0
KBI1 230307Z 14009G14KT 13/06 A2974 RMK A01 T01300063  RH  064%=      5-min Rain = 0
KBI1 230308Z 14010KT 13/06 A2974 RMK A01 T01300064  RH  064%=      5-min Rain = 0
KBI1 230309Z 15008KT 13/06 A2974 RMK A01 T01300064  RH  064%=      5-min Rain = 0
KBI1 230310Z 14008KT 13/07 A2974 RMK A01 T01300065  RH  064%=      5-min Rain = 0
KBI1 230311Z 14009KT 13/07 A2974 RMK A01 T01300065  RH  065%=      5-min Rain = 0
KBI1 230312Z 13010KT 13/07 A2973 RMK A01 T01300065  RH  065%=      5-min Rain = 0
KBI1 230313Z 14008KT 13/07 A2974 RMK A01 T01300066  RH  065%=      5-min Rain = 0
KBI1 230314Z 16009KT 13/07 A2974 RMK A01 T01300066  RH  065%=      5-min Rain = 0
KBI1 230315Z 15008KT 13/07 A2974 RMK A01 T01310067  RH  065%=      5-min Rain = 0
KBI1 230316Z 15008KT 13/07 A2974 RMK A01 T01320067  RH  065%=      5-min Rain = 0
KBI1 230317Z 16010KT 13/07 A2974 RMK A01 T01320068  RH  065%=      5-min Rain = 0
KBI1 230318Z 15009KT 13/07 A2974 RMK A01 T01330068  RH  065%=      5-min Rain = 0
KBI1 230319Z 15010KT 13/07 A2974 RMK A01 T01340068  RH  064%=      5-min Rain = 0
KBI1 230320Z 15011KT 14/07 A2974 RMK A01 T01350069  RH  064%=      5-min Rain = 0
KBI1 230321Z 14010G15KT 14/07 A2974 RMK A01 T01350068  RH  064%=      5-min Rain = 0
KBI1 230322Z 15008G13KT 14/07 A2974 RMK A01 T01350068  RH  064%=      5-min Rain = 0
KBI1 230323Z 15009G14KT 14/07 A2974 RMK A01 T01350069  RH  064%=      5-min Rain = 0
KBI1 230324Z 14009KT 14/07 A2973 RMK A01 T01350068  RH  064%=      5-min Rain = 0
KBI1 230325Z 15009KT 14/07 A2973 RMK A01 T01350068  RH  064%=      5-min Rain = 0
KBI1 230326Z 14010KT 14/07 A2973 RMK A01 T01350069  RH  064%=      5-min Rain = 0
KBI1 230327Z 14011G16KT 14/07 A2973 RMK A01 T01360070  RH  064%=      5-min Rain = 0
KBI1 230328Z 14010G15KT 14/07 A2973 RMK A01 T01380070  RH  064%=      5-min Rain = 0
KBI1 230329Z 14012KT 14/07 A2973 RMK A01 T01380070  RH  063%=      5-min Rain = 0
KBI1 230330Z 14012G17KT 14/07 A2973 RMK A01 T01390070  RH  063%=      5-min Rain = 0
KBI1 230331Z 14010G15KT 14/07 A2973 RMK A01 T01390071  RH  063%=      5-min Rain = 0
KBI1 230332Z 15011G17KT 14/07 A2973 RMK A01 T01390071  RH  063%=      5-min Rain = 0
KBI1 230333Z 14010KT 14/07 A2973 RMK A01 T01390071  RH  063%=      5-min Rain = 0
KBI1 230334Z 15010G15KT 14/07 A2973 RMK A01 T01400071  RH  063%=      5-min Rain = 0
KBI1 230335Z 15010G15KT 14/07 A2973 RMK A01 T01390071  RH  063%=      5-min Rain = 0
KBI1 230336Z 15009KT 14/07 A2973 RMK A01 T01390071  RH  063%=      5-min Rain = 0
KBI1 230337Z 15011G18KT 14/07 A2973 RMK A01 T01390071  RH  064%=      5-min Rain = 0
KBI1 230338Z 15010G15KT 14/07 A2973 RMK A01 T01390071  RH  064%=      5-min Rain = 0
KBI1 230339Z 15010KT 14/07 A2973 RMK A01 T01390071  RH  064%=      5-min Rain = 0
KBI1 230340Z 14011G16KT 14/07 A2973 RMK A01 T01380072  RH  064%=      5-min Rain = 0
KBI1 230341Z 15012KT 14/07 A2973 RMK A01 T01380072  RH  064%=      5-min Rain = 0
KBI1 230342Z 14012KT 14/07 A2973 RMK A01 T01380072  RH  064%=      5-min Rain = 0
KBI1 230343Z 15011KT 14/07 A2973 RMK A01 T01380072  RH  064%=      5-min Rain = 0
KBI1 230344Z 14012KT 14/07 A2973 RMK A01 T01380072  RH  064%=      5-min Rain = 0
KBI1 230345Z 15012G18KT 14/07 A2973 RMK A01 T01380072  RH  065%=      5-min Rain = 0
KBI1 230346Z 15010KT 14/07 A2973 RMK A01 T01370073  RH  065%=      5-min Rain = 0
KBI1 230347Z 15010KT 14/07 A2973 RMK A01 T01370073  RH  065%=      5-min Rain = 0
KBI1 230348Z 15012G19KT 14/07 A2973 RMK A01 T01360073  RH  065%=      5-min Rain = 0
KBI1 230349Z 15011G16KT 14/07 A2973 RMK A01 T01360074  RH  066%=      5-min Rain = 0
KBI1 230350Z 15009G14KT 14/07 A2973 RMK A01 T01370074  RH  066%=      5-min Rain = 0
KBI1 230351Z 14008KT 14/07 A2973 RMK A01 T01370074  RH  066%=      5-min Rain = 0
KBI1 230352Z 15011KT 14/07 A2973 RMK A01 T01360074  RH  066%=      5-min Rain = 0
KBI1 230353Z 14009KT 14/07 A2973 RMK A01 T01360074  RH  066%=      5-min Rain = 0
KBI1 230354Z 14010KT 14/07 A2973 RMK A01 T01360074  RH  066%=      5-min Rain = 0
KBI1 230355Z 14010G15KT 14/08 A2973 RMK A01 T01360075  RH  066%=      5-min Rain = 0
KBI1 230356Z 14011G16KT 14/08 A2973 RMK A01 T01360075  RH  066%=      5-min Rain = 0
KBI1 230357Z 15010G15KT 14/08 A2973 RMK A01 T01370076  RH  067%=      5-min Rain = 0
KBI1 230358Z 14010G16KT 14/08 A2973 RMK A01 T01360075  RH  067%=      5-min Rain = 0
KBI1 230359Z 13012KT 14/08 A2973 RMK A01 T01360075  RH  067%=      5-min Rain = 0
KBI1 230400Z 14011KT 14/08 A2973 RMK A01 T01360076  RH  067%=      5-min Rain = 0
KBI1 230401Z 14012G17KT 14/08 A2973 RMK A01 T01360076  RH  067%=      5-min Rain = 0
KBI1 230402Z 14010G15KT 14/08 A2973 RMK A01 T01360076  RH  067%=      5-min Rain = 0
KBI1 230403Z 14012G17KT 14/08 A2973 RMK A01 T01360076  RH  067%=      5-min Rain = 0
KBI1 230404Z 14011KT 14/08 A2973 RMK A01 T01350076  RH  067%=      5-min Rain = 0
KBI1 230405Z 15009KT 14/08 A2973 RMK A01 T01360077  RH  068%=      5-min Rain = 0
KBI1 230406Z 15011KT 14/08 A2973 RMK A01 T01350076  RH  068%=      5-min Rain = 0
KBI1 230407Z 16014KT 14/08 A2974 RMK A01 T01350077  RH  068%=      5-min Rain = 0
KBI1 230408Z 16013KT 13/08 A2974 RMK A01 T01340077  RH  068%=      5-min Rain = 0
KBI1 230409Z 16014KT 13/08 A2974 RMK A01 T01340077  RH  068%=      5-min Rain = 0
KBI1 230410Z 16013KT 13/08 A2974 RMK A01 T01340077  RH  068%=      5-min Rain = 0
KBI1 230411Z 16013KT 13/08 A2974 RMK A01 T01340077  RH  068%=      5-min Rain = 0
KBI1 230412Z 16011KT 13/08 A2974 RMK A01 T01340077  RH  068%=      5-min Rain = 0
KBI1 230413Z 16011KT 13/08 A2974 RMK A01 T01330076  RH  069%=      5-min Rain = 0
KBI1 230414Z 15013KT 13/08 A2974 RMK A01 T01320076  RH  069%=      5-min Rain = 0
KBI1 230415Z 15012G17KT 13/08 A2973 RMK A01 T01320077  RH  069%=      5-min Rain = 0
KBI1 230416Z 14011G16KT 13/08 A2973 RMK A01 T01320077  RH  069%=      5-min Rain = 0
KBI1 230417Z 14011KT 13/08 A2973 RMK A01 T01320077  RH  069%=      5-min Rain = 0
KBI1 230418Z 14013KT 13/08 A2972 RMK A01 T01310077  RH  070%=      5-min Rain = 0
KBI1 230419Z 14011G17KT 13/08 A2972 RMK A01 T01310077  RH  070%=      5-min Rain = 0
KBI1 230420Z 15012G18KT 13/08 A2973 RMK A01 T01310077  RH  070%=      5-min Rain = 0
KBI1 230421Z 15013G19KT 13/08 A2973 RMK A01 T01320078  RH  070%=      5-min Rain = 0
KBI1 230422Z 15013KT 13/08 A2973 RMK A01 T01320078  RH  070%=      5-min Rain = 0
KBI1 230423Z 15011G17KT 13/08 A2973 RMK A01 T01320078  RH  070%=      5-min Rain = 0
KBI1 230424Z 16013KT 13/08 A2973 RMK A01 T01320078  RH  070%=      5-min Rain = 0
KBI1 230425Z 16013KT 13/08 A2974 RMK A01 T01320079  RH  070%=      5-min Rain = 0
KBI1 230426Z 16011G16KT 13/08 A2974 RMK A01 T01310079  RH  070%=      5-min Rain = 0
KBI1 230427Z 15013KT 13/08 A2974 RMK A01 T01300079  RH  071%=      5-min Rain = 0
KBI1 230428Z 15013KT 13/08 A2974 RMK A01 T01300079  RH  071%=      5-min Rain = 0
KBI1 230429Z 16012KT 13/08 A2974 RMK A01 T01300079  RH  071%=      5-min Rain = 0
KBI1 230430Z 16012KT 13/08 A2974 RMK A01 T01300080  RH  071%=      5-min Rain = 0
KBI1 230431Z 16014KT 13/08 A2974 RMK A01 T01290080  RH  072%=      5-min Rain = 0
KBI1 230432Z 16011KT 13/08 A2974 RMK A01 T01300080  RH  072%=      5-min Rain = 0
KBI1 230433Z 15010G15KT 13/08 A2974 RMK A01 T01290080  RH  072%=      5-min Rain = 0
KBI1 230434Z 16014KT 13/08 A2974 RMK A01 T01290080  RH  072%=      5-min Rain = 0
KBI1 230435Z 15012KT 13/08 A2974 RMK A01 T01290081  RH  072%=      5-min Rain = 0
KBI1 230436Z 16014KT 13/08 A2973 RMK A01 T01290081  RH  072%=      5-min Rain = 0
KBI1 230437Z 15012KT 13/08 A2973 RMK A01 T01290081  RH  072%=      5-min Rain = 0
KBI1 230438Z 15013KT 13/08 A2973 RMK A01 T01300081  RH  072%=      5-min Rain = 0
KBI1 230439Z 15012G17KT 13/08 A2974 RMK A01 T01290081  RH  073%=      5-min Rain = 0
KBI1 230440Z 16014G19KT 13/08 A2973 RMK A01 T01290081  RH  073%=      5-min Rain = 0
KBI1 230441Z 16012KT 13/08 A2974 RMK A01 T01290082  RH  073%=      5-min Rain = 0
KBI1 230442Z 16012KT 13/08 A2974 RMK A01 T01280082  RH  073%=      5-min Rain = 0
KBI1 230443Z 16011KT 13/08 A2974 RMK A01 T01270082  RH  074%=      5-min Rain = 0
KBI1 230444Z 16013KT 13/08 A2973 RMK A01 T01270082  RH  074%=      5-min Rain = 0
KBI1 230445Z 16013G19KT 13/08 A2973 RMK A01 T01270083  RH  074%=      5-min Rain = 0
KBI1 230446Z 15013KT 13/08 A2973 RMK A01 T01270083  RH  075%=      5-min Rain = 0
KBI1 230447Z 16013KT 13/08 A2973 RMK A01 T01280084  RH  075%=      5-min Rain = 0
KBI1 230448Z 16014KT 13/08 A2974 RMK A01 T01280084  RH  075%=      5-min Rain = 0
KBI1 230449Z 16015G21KT 13/09 A2974 RMK A01 T01280085  RH  075%=      5-min Rain = 0
KBI1 230450Z 16013KT 13/09 A2974 RMK A01 T01280085  RH  075%=      5-min Rain = 0
KBI1 230451Z 16016G21KT 13/09 A2974 RMK A01 T01280086  RH  076%=      5-min Rain = 0
KBI1 230452Z 16014G19KT 13/09 A2974 RMK A01 T01280086  RH  076%=      5-min Rain = 0
KBI1 230453Z 17015KT 13/09 A2974 RMK A01 T01280087  RH  076%=      5-min Rain = 0
KBI1 230454Z 17013KT 13/09 A2974 RMK A01 T01280088  RH  077%=      5-min Rain = 0
KBI1 230455Z 17014KT 13/09 A2974 RMK A01 T01270088  RH  077%=      5-min Rain = 0
KBI1 230456Z 16013G19KT 13/09 A2974 RMK A01 T01270089  RH  077%=      5-min Rain = 0
KBI1 230457Z 16015KT 13/09 A2974 RMK A01 T01270089  RH  078%=      5-min Rain = 0
KBI1 230458Z 16015KT 13/09 A2974 RMK A01 T01280090  RH  078%=      5-min Rain = 0
KBI1 230459Z 15013KT 13/09 A2974 RMK A01 T01280090  RH  078%=      5-min Rain = 0
KBI1 230500Z 16014KT 13/09 A2974 RMK A01 T01280091  RH  078%=      5-min Rain = 0
KBI1 230501Z 16013G20KT 13/09 A2974 RMK A01 T01280092  RH  079%=      5-min Rain = 0
KBI1 230502Z 15016KT 13/09 A2974 RMK A01 T01280092  RH  079%=      5-min Rain = 0
KBI1 230503Z 16014KT 13/09 A2974 RMK A01 T01280093  RH  079%=      5-min Rain = 0
KBI1 230504Z 16013KT 13/09 A2974 RMK A01 T01280093  RH  079%=      5-min Rain = 0
KBI1 230505Z 16013KT 13/09 A2974 RMK A01 T01280093  RH  079%=      5-min Rain = 0
KBI1 230506Z 16015G21KT 13/09 A2974 RMK A01 T01280093  RH  079%=      5-min Rain = 0
KBI1 230507Z 16014G19KT 13/09 A2974 RMK A01 T01280094  RH  080%=      5-min Rain = 0
KBI1 230508Z 16018KT 13/09 A2974 RMK A01 T01280094  RH  080%=      5-min Rain = 0
KBI1 230509Z 16018G23KT 13/10 A2974 RMK A01 T01290096  RH  080%=      5-min Rain = 0
KBI1 230510Z 15017G24KT 13/10 A2974 RMK A01 T01300096  RH  080%=      5-min Rain = 0
KBI1 230511Z 16019KT 13/10 A2974 RMK A01 T01300097  RH  080%=      5-min Rain = 0
KBI1 230512Z 16017G23KT 13/10 A2974 RMK A01 T01310098  RH  080%=      5-min Rain = 0
KBI1 230513Z 16019G24KT 13/10 A2974 RMK A01 T01310098  RH  080%=      5-min Rain = 0
KBI1 230514Z 16020G25KT 13/10 A2974 RMK A01 T01310099  RH  081%=      5-min Rain = 0
KBI1 230515Z 16021KT 13/10 A2974 RMK A01 T01320100  RH  081%=      5-min Rain = 0
KBI1 230516Z 17018KT 13/10 A2974 RMK A01 T01330101  RH  081%=      5-min Rain = 0
KBI1 230517Z 16017KT 13/10 A2974 RMK A01 T01330101  RH  081%=      5-min Rain = 0
KBI1 230518Z 17017KT 13/10 A2974 RMK A01 T01330101  RH  081%=      5-min Rain = 0
KBI1 230519Z 16013KT 13/10 A2974 RMK A01 T01330102  RH  081%=      5-min Rain = 0
KBI1 230520Z 16018G24KT 13/10 A2974 RMK A01 T01330102  RH  082%=      5-min Rain = 0
KBI1 230521Z 16018KT 13/10 A2974 RMK A01 T01340104  RH  082%=      5-min Rain = 0
KBI1 230522Z 16020G28KT 13/10 A2974 RMK A01 T01340104  RH  082%=      5-min Rain = 0
KBI1 230523Z 16021KT 14/10 A2974 RMK A01 T01350104  RH  082%=      5-min Rain = 0
KBI1 230524Z 16019KT 14/11 A2974 RMK A01 T01350105  RH  082%=      5-min Rain = 0
KBI1 230525Z 16019G26KT 14/11 A2974 RMK A01 T01350105  RH  082%=      5-min Rain = 0
KBI1 230526Z 16016G22KT 14/11 A2974 RMK A01 T01360106  RH  082%=      5-min Rain = 0
KBI1 230527Z 16020G25KT 14/11 A2974 RMK A01 T01360106  RH  082%=      5-min Rain = 0
KBI1 230528Z 16020G27KT 14/11 A2974 RMK A01 T01360107  RH  082%=      5-min Rain = 0
KBI1 230529Z 16024KT 14/11 A2974 RMK A01 T01360107  RH  083%=      5-min Rain = 0
KBI1 230530Z 17021KT 14/11 A2974 RMK A01 T01370108  RH  083%=      5-min Rain = 0
KBI1 230531Z 16019G24KT 14/11 A2974 RMK A01 T01370108  RH  083%=      5-min Rain = 0
KBI1 230532Z 16023G28KT 14/11 A2974 RMK A01 T01370108  RH  083%=      5-min Rain = 0
KBI1 230533Z 16022G30KT 14/11 A2974 RMK A01 T01380109  RH  083%=      5-min Rain = 0
KBI1 230534Z 16021G28KT 14/11 A2973 RMK A01 T01380109  RH  083%=      5-min Rain = 0
KBI1 230535Z 16021KT 14/11 A2974 RMK A01 T01380109  RH  083%=      5-min Rain = 0
KBI1 230536Z 16020KT 14/11 A2974 RMK A01 T01380109  RH  083%=      5-min Rain = 0
KBI1 230537Z 16019G24KT 14/11 A2974 RMK A01 T01380110  RH  083%=      5-min Rain = 0
KBI1 230538Z 16023G30KT 14/11 A2974 RMK A01 T01380110  RH  083%=      5-min Rain = 0
KBI1 230539Z 16022G28KT 14/11 A2974 RMK A01 T01390111  RH  083%=      5-min Rain = 0
KBI1 230540Z 16023KT 14/11 A2974 RMK A01 T01390111  RH  083%=      5-min Rain = 0
KBI1 230541Z 16019G24KT 14/11 A2974 RMK A01 T01390111  RH  083%=      5-min Rain = 0
KBI1 230542Z 16019KT 14/11 A2974 RMK A01 T01390111  RH  083%=      5-min Rain = 0
KBI1 230543Z 17023KT 14/11 A2974 RMK A01 T01390112  RH  084%=      5-min Rain = 0
KBI1 230544Z 17019G26KT 14/11 A2974 RMK A01 T01400112  RH  084%=      5-min Rain = 0
KBI1 230545Z 17016KT 14/11 A2975 RMK A01 T01400113  RH  084%=      5-min Rain = 0
KBI1 230546Z 17016KT 14/11 A2975 RMK A01 T01400113  RH  084%=      5-min Rain = 0
KBI1 230547Z 17018G26KT 14/11 A2975 RMK A01 T01400113  RH  084%=      5-min Rain = 0
KBI1 230548Z 17020G26KT 14/11 A2975 RMK A01 T01400114  RH  084%=      5-min Rain = 0
KBI1 230549Z 18021G26KT 14/11 A2975 RMK A01 T01410114  RH  084%=      5-min Rain = 0
KBI1 230550Z 18021KT 14/11 A2975 RMK A01 T01410114  RH  084%=      5-min Rain = 0
KBI1 230551Z 17020KT 14/12 A2975 RMK A01 T01410115  RH  084%=      5-min Rain = 0
KBI1 230552Z 17017G22KT 14/12 A2975 RMK A01 T01410115  RH  084%=      5-min Rain = 0
KBI1 230553Z 17016G21KT 14/12 A2975 RMK A01 T01410115  RH  084%=      5-min Rain = 0
KBI1 230554Z 17014KT 14/12 A2975 RMK A01 T01410115  RH  084%=      5-min Rain = 0
KBI1 230555Z 17017KT 14/12 A2975 RMK A01 T01410115  RH  084%=      5-min Rain = 0
KBI1 230556Z 18021KT 14/12 A2975 RMK A01 T01410115  RH  085%=      5-min Rain = 0
KBI1 230557Z 17015KT 14/12 A2975 RMK A01 T01410115  RH  085%=      5-min Rain = 0
KBI1 230558Z 17019KT 14/12 A2975 RMK A01 T01410115  RH  085%=      5-min Rain = 0
KBI1 230559Z 17017KT 14/12 A2975 RMK A01 T01410116  RH  085%=      5-min Rain = 0

Page generated in 0.1438 seconds.